<?xml version="1.0" encoding="UTF-8" standalone="no" ?><gpx xmlns="http://www.topografix.com/GPX/1/1" xmlns:gpxx="http://www.garmin.com/xmlschemas/GpxExtensions/v3" xmlns:gpxtrkx="http://www.garmin.com/xmlschemas/TrackStatsExtension/v1" xmlns:wptx1="http://www.garmin.com/xmlschemas/WaypointExtension/v1" xmlns:gpxtpx="http://www.garmin.com/xmlschemas/TrackPointExtension/v1" creator="Montana 610" version="1.1" xmlns:xsi="http://www.w3.org/2001/XMLSchema-instance" xsi:schemaLocation="http://www.topografix.com/GPX/1/1 http://www.topografix.com/GPX/1/1/gpx.xsd http://www.garmin.com/xmlschemas/GpxExtensions/v3 http://www8.garmin.com/xmlschemas/GpxExtensionsv3.xsd http://www.garmin.com/xmlschemas/TrackStatsExtension/v1 http://www8.garmin.com/xmlschemas/TrackStatsExtension.xsd http://www.garmin.com/xmlschemas/WaypointExtension/v1 http://www8.garmin.com/xmlschemas/WaypointExtensionv1.xsd http://www.garmin.com/xmlschemas/TrackPointExtension/v1 http://www.garmin.com/xmlschemas/TrackPointExtensionv1.xsd"><metadata><link href="http://www.garmin.com"><text>Garmin International</text></link><time>2020-10-25T14:15:19Z</time></metadata><trk><name>2020-10-25 15:15:17</name><extensions><gpxx:TrackExtension><gpxx:DisplayColor>Cyan</gpxx:DisplayColor></gpxx:TrackExtension><gpxtrkx:TrackStatsExtension><gpxtrkx:Distance>9844</gpxtrkx:Distance><gpxtrkx:TimerTime>20929</gpxtrkx:TimerTime><gpxtrkx:TotalElapsedTime>20941</gpxtrkx:TotalElapsedTime><gpxtrkx:MovingTime>13801</gpxtrkx:MovingTime><gpxtrkx:StoppedTime>7129</gpxtrkx:StoppedTime><gpxtrkx:MovingSpeed>1</gpxtrkx:MovingSpeed><gpxtrkx:MaxSpeed>2</gpxtrkx:MaxSpeed><gpxtrkx:MaxElevation>2398</gpxtrkx:MaxElevation><gpxtrkx:MinElevation>1377</gpxtrkx:MinElevation><gpxtrkx:Ascent>1118</gpxtrkx:Ascent><gpxtrkx:Descent>1120</gpxtrkx:Descent><gpxtrkx:AvgAscentRate>0</gpxtrkx:AvgAscentRate><gpxtrkx:MaxAscentRate>1</gpxtrkx:MaxAscentRate><gpxtrkx:AvgDescentRate>0</gpxtrkx:AvgDescentRate><gpxtrkx:MaxDescentRate>-1</gpxtrkx:MaxDescentRate><gpxtrkx:Calories>503</gpxtrkx:Calories></gpxtrkx:TrackStatsExtension></extensions><trkseg><trkpt lat="42.7786588669" lon="0.5312693305"><ele>1398.43</ele><time>2020-10-25T08:26:18Z</time></trkpt><trkpt lat="42.7786088269" lon="0.5312792212"><ele>1446.16</ele><time>2020-10-25T08:30:22Z</time></trkpt><trkpt lat="42.7785651572" lon="0.5311653111"><ele>1445.92</ele><time>2020-10-25T08:30:49Z</time></trkpt><trkpt lat="42.7784707770" lon="0.5311520677"><ele>1447.54</ele><time>2020-10-25T08:31:02Z</time></trkpt><trkpt lat="42.7783619799" lon="0.5310917180"><ele>1450.67</ele><time>2020-10-25T08:31:18Z</time></trkpt><trkpt lat="42.7782692760" lon="0.5310861021"><ele>1454.10</ele><time>2020-10-25T08:31:33Z</time></trkpt><trkpt lat="42.7781718783" lon="0.5310380738"><ele>1455.80</ele><time>2020-10-25T08:31:48Z</time></trkpt><trkpt lat="42.7780733909" lon="0.5310032051"><ele>1457.32</ele><time>2020-10-25T08:32:02Z</time></trkpt><trkpt lat="42.7779809386" lon="0.5310238246"><ele>1458.85</ele><time>2020-10-25T08:32:14Z</time></trkpt><trkpt lat="42.7778956946" lon="0.5310781393"><ele>1459.57</ele><time>2020-10-25T08:32:24Z</time></trkpt><trkpt lat="42.7778072655" lon="0.5310946517"><ele>1462.23</ele><time>2020-10-25T08:32:37Z</time></trkpt><trkpt lat="42.7777500171" lon="0.5309490580"><ele>1463.93</ele><time>2020-10-25T08:32:54Z</time></trkpt><trkpt lat="42.7777636796" lon="0.5307939928"><ele>1467.46</ele><time>2020-10-25T08:33:11Z</time></trkpt><trkpt lat="42.7777400427" lon="0.5306742992"><ele>1471.43</ele><time>2020-10-25T08:33:31Z</time></trkpt><trkpt lat="42.7776452433" lon="0.5306872912"><ele>1472.82</ele><time>2020-10-25T08:33:45Z</time></trkpt><trkpt lat="42.7775522880" lon="0.5307623930"><ele>1473.52</ele><time>2020-10-25T08:33:58Z</time></trkpt><trkpt lat="42.7774608415" lon="0.5307944119"><ele>1474.88</ele><time>2020-10-25T08:34:10Z</time></trkpt><trkpt lat="42.7773792017" lon="0.5308553483"><ele>1475.91</ele><time>2020-10-25T08:34:22Z</time></trkpt><trkpt lat="42.7772850730" lon="0.5308903847"><ele>1478.17</ele><time>2020-10-25T08:34:37Z</time></trkpt><trkpt lat="42.7772061992" lon="0.5309795681"><ele>1479.88</ele><time>2020-10-25T08:34:50Z</time></trkpt><trkpt lat="42.7771308459" lon="0.5310646445"><ele>1482.22</ele><time>2020-10-25T08:35:04Z</time></trkpt><trkpt lat="42.7770646289" lon="0.5311668199"><ele>1483.20</ele><time>2020-10-25T08:35:16Z</time></trkpt><trkpt lat="42.7769797202" lon="0.5312443525"><ele>1485.61</ele><time>2020-10-25T08:35:30Z</time></trkpt><trkpt lat="42.7768954821" lon="0.5313057080"><ele>1488.11</ele><time>2020-10-25T08:35:45Z</time></trkpt><trkpt lat="42.7768194582" lon="0.5313276686"><ele>1490.48</ele><time>2020-10-25T08:35:59Z</time></trkpt><trkpt lat="42.7767321188" lon="0.5313507188"><ele>1492.13</ele><time>2020-10-25T08:36:13Z</time></trkpt><trkpt lat="42.7766391635" lon="0.5313512217"><ele>1494.55</ele><time>2020-10-25T08:36:27Z</time></trkpt><trkpt lat="42.7765353117" lon="0.5313646328"><ele>1497.56</ele><time>2020-10-25T08:36:42Z</time></trkpt><trkpt lat="42.7764362376" lon="0.5313751940"><ele>1499.08</ele><time>2020-10-25T08:36:55Z</time></trkpt><trkpt lat="42.7763430309" lon="0.5313558318"><ele>1501.52</ele><time>2020-10-25T08:37:10Z</time></trkpt><trkpt lat="42.7762504108" lon="0.5313622858"><ele>1503.81</ele><time>2020-10-25T08:37:24Z</time></trkpt><trkpt lat="42.7761541028" lon="0.5313642137"><ele>1506.21</ele><time>2020-10-25T08:37:39Z</time></trkpt><trkpt lat="42.7760608122" lon="0.5313576758"><ele>1508.23</ele><time>2020-10-25T08:37:52Z</time></trkpt><trkpt lat="42.7759717125" lon="0.5313888565"><ele>1509.46</ele><time>2020-10-25T08:38:06Z</time></trkpt><trkpt lat="42.7758895699" lon="0.5314206239"><ele>1511.68</ele><time>2020-10-25T08:38:22Z</time></trkpt><trkpt lat="42.7757997159" lon="0.5314173549"><ele>1515.20</ele><time>2020-10-25T08:38:40Z</time></trkpt><trkpt lat="42.7757076826" lon="0.5314096436"><ele>1518.34</ele><time>2020-10-25T08:38:57Z</time></trkpt><trkpt lat="42.7756094467" lon="0.5314041954"><ele>1521.58</ele><time>2020-10-25T08:39:14Z</time></trkpt><trkpt lat="42.7755070198" lon="0.5313870963"><ele>1523.79</ele><time>2020-10-25T08:39:32Z</time></trkpt><trkpt lat="42.7754073590" lon="0.5314185284"><ele>1527.07</ele><time>2020-10-25T08:39:51Z</time></trkpt><trkpt lat="42.7753047645" lon="0.5314440932"><ele>1531.39</ele><time>2020-10-25T08:40:11Z</time></trkpt><trkpt lat="42.7752205264" lon="0.5314563308"><ele>1534.72</ele><time>2020-10-25T08:40:30Z</time></trkpt><trkpt lat="42.7751297504" lon="0.5314813927"><ele>1537.72</ele><time>2020-10-25T08:40:51Z</time></trkpt><trkpt lat="42.7750310116" lon="0.5314897746"><ele>1541.73</ele><time>2020-10-25T08:41:11Z</time></trkpt><trkpt lat="42.7749336138" lon="0.5315214582"><ele>1545.80</ele><time>2020-10-25T08:41:32Z</time></trkpt><trkpt lat="42.7748523932" lon="0.5316055287"><ele>1547.64</ele><time>2020-10-25T08:41:52Z</time></trkpt><trkpt lat="42.7747632097" lon="0.5316181853"><ele>1551.10</ele><time>2020-10-25T08:42:11Z</time></trkpt><trkpt lat="42.7746849228" lon="0.5315821432"><ele>1553.69</ele><time>2020-10-25T08:43:27Z</time></trkpt><trkpt lat="42.7746513113" lon="0.5317250546"><ele>1554.22</ele><time>2020-10-25T08:44:35Z</time></trkpt><trkpt lat="42.7746240702" lon="0.5318491906"><ele>1555.92</ele><time>2020-10-25T08:44:49Z</time></trkpt><trkpt lat="42.7745871060" lon="0.5319835525"><ele>1557.71</ele><time>2020-10-25T08:45:04Z</time></trkpt><trkpt lat="42.7745003533" lon="0.5320444051"><ele>1561.11</ele><time>2020-10-25T08:45:24Z</time></trkpt><trkpt lat="42.7744119242" lon="0.5320525356"><ele>1564.46</ele><time>2020-10-25T08:45:41Z</time></trkpt><trkpt lat="42.7743312065" lon="0.5320894159"><ele>1567.92</ele><time>2020-10-25T08:45:58Z</time></trkpt><trkpt lat="42.7742408495" lon="0.5321195908"><ele>1571.03</ele><time>2020-10-25T08:46:18Z</time></trkpt><trkpt lat="42.7741528396" lon="0.5321843829"><ele>1573.53</ele><time>2020-10-25T08:46:37Z</time></trkpt><trkpt lat="42.7740618959" lon="0.5322109535"><ele>1576.81</ele><time>2020-10-25T08:46:58Z</time></trkpt><trkpt lat="42.7739711199" lon="0.5322252866"><ele>1580.45</ele><time>2020-10-25T08:47:19Z</time></trkpt><trkpt lat="42.7738851216" lon="0.5322754942"><ele>1583.65</ele><time>2020-10-25T08:47:41Z</time></trkpt><trkpt lat="42.7737978660" lon="0.5323133804"><ele>1587.76</ele><time>2020-10-25T08:48:02Z</time></trkpt><trkpt lat="42.7737210877" lon="0.5323287193"><ele>1590.32</ele><time>2020-10-25T08:48:23Z</time></trkpt><trkpt lat="42.7736451477" lon="0.5323777534"><ele>1594.51</ele><time>2020-10-25T08:48:46Z</time></trkpt><trkpt lat="42.7735433914" lon="0.5323517695"><ele>1597.70</ele><time>2020-10-25T08:49:07Z</time></trkpt><trkpt lat="42.7734504361" lon="0.5323717184"><ele>1601.64</ele><time>2020-10-25T08:49:30Z</time></trkpt><trkpt lat="42.7733553015" lon="0.5323528592"><ele>1605.84</ele><time>2020-10-25T08:49:52Z</time></trkpt><trkpt lat="42.7732610051" lon="0.5323333293"><ele>1609.07</ele><time>2020-10-25T08:50:14Z</time></trkpt><trkpt lat="42.7731709834" lon="0.5323599000"><ele>1612.35</ele><time>2020-10-25T08:50:36Z</time></trkpt><trkpt lat="42.7730778605" lon="0.5323628336"><ele>1615.64</ele><time>2020-10-25T08:50:59Z</time></trkpt><trkpt lat="42.7729969751" lon="0.5323535297"><ele>1618.77</ele><time>2020-10-25T08:51:19Z</time></trkpt><trkpt lat="42.7728948835" lon="0.5323410407"><ele>1621.13</ele><time>2020-10-25T08:51:36Z</time></trkpt><trkpt lat="42.7727952227" lon="0.5323289707"><ele>1623.58</ele><time>2020-10-25T08:51:53Z</time></trkpt><trkpt lat="42.7727107331" lon="0.5323184095"><ele>1625.92</ele><time>2020-10-25T08:52:08Z</time></trkpt><trkpt lat="42.7726218011" lon="0.5323093571"><ele>1628.14</ele><time>2020-10-25T08:52:22Z</time></trkpt><trkpt lat="42.7725390717" lon="0.5322682019"><ele>1630.43</ele><time>2020-10-25T08:52:36Z</time></trkpt><trkpt lat="42.7724442724" lon="0.5322474148"><ele>1632.00</ele><time>2020-10-25T08:52:49Z</time></trkpt><trkpt lat="42.7723508980" lon="0.5322331656"><ele>1632.74</ele><time>2020-10-25T08:53:01Z</time></trkpt><trkpt lat="42.7722451184" lon="0.5322081875"><ele>1634.45</ele><time>2020-10-25T08:53:15Z</time></trkpt><trkpt lat="42.7721527498" lon="0.5321876518"><ele>1635.10</ele><time>2020-10-25T08:53:27Z</time></trkpt><trkpt lat="42.7720551006" lon="0.5321767554"><ele>1635.80</ele><time>2020-10-25T08:53:38Z</time></trkpt><trkpt lat="42.7719584573" lon="0.5321420543"><ele>1635.76</ele><time>2020-10-25T08:53:49Z</time></trkpt><trkpt lat="42.7718563657" lon="0.5321511067"><ele>1635.71</ele><time>2020-10-25T08:54:00Z</time></trkpt><trkpt lat="42.7717586327" lon="0.5321561359"><ele>1636.53</ele><time>2020-10-25T08:54:11Z</time></trkpt><trkpt lat="42.7716677729" lon="0.5321515258"><ele>1636.51</ele><time>2020-10-25T08:54:22Z</time></trkpt><trkpt lat="42.7715714648" lon="0.5321469158"><ele>1638.20</ele><time>2020-10-25T08:54:35Z</time></trkpt><trkpt lat="42.7714820299" lon="0.5321081076"><ele>1639.90</ele><time>2020-10-25T08:54:49Z</time></trkpt><trkpt lat="42.7713837102" lon="0.5320818722"><ele>1641.73</ele><time>2020-10-25T08:55:02Z</time></trkpt><trkpt lat="42.7712867316" lon="0.5320578162"><ele>1643.42</ele><time>2020-10-25T08:55:16Z</time></trkpt><trkpt lat="42.7711931895" lon="0.5320410524"><ele>1646.05</ele><time>2020-10-25T08:55:35Z</time></trkpt><trkpt lat="42.7710993960" lon="0.5320647731"><ele>1648.42</ele><time>2020-10-25T08:55:57Z</time></trkpt><trkpt lat="42.7710076980" lon="0.5320770107"><ele>1651.76</ele><time>2020-10-25T08:56:17Z</time></trkpt><trkpt lat="42.7709187660" lon="0.5321045034"><ele>1653.46</ele><time>2020-10-25T08:56:33Z</time></trkpt><trkpt lat="42.7708359528" lon="0.5320644379"><ele>1656.77</ele><time>2020-10-25T08:56:52Z</time></trkpt><trkpt lat="42.7707398124" lon="0.5320988037"><ele>1660.13</ele><time>2020-10-25T08:57:11Z</time></trkpt><trkpt lat="42.7706489526" lon="0.5321724806"><ele>1661.77</ele><time>2020-10-25T08:57:29Z</time></trkpt><trkpt lat="42.7705875970" lon="0.5321220215"><ele>1665.11</ele><time>2020-10-25T08:57:50Z</time></trkpt><trkpt lat="42.7705025207" lon="0.5320811179"><ele>1669.12</ele><time>2020-10-25T08:58:11Z</time></trkpt><trkpt lat="42.7704244014" lon="0.5320161581"><ele>1673.26</ele><time>2020-10-25T08:58:35Z</time></trkpt><trkpt lat="42.7703415044" lon="0.5319631845"><ele>1675.76</ele><time>2020-10-25T08:58:58Z</time></trkpt><trkpt lat="42.7702658996" lon="0.5318767671"><ele>1681.29</ele><time>2020-10-25T08:59:23Z</time></trkpt><trkpt lat="42.7701778058" lon="0.5318408087"><ele>1684.76</ele><time>2020-10-25T08:59:44Z</time></trkpt><trkpt lat="42.7700904664" lon="0.5317837279"><ele>1687.82</ele><time>2020-10-25T09:00:07Z</time></trkpt><trkpt lat="42.7700042166" lon="0.5317260604"><ele>1690.49</ele><time>2020-10-25T09:00:27Z</time></trkpt><trkpt lat="42.7699258458" lon="0.5316744279"><ele>1694.51</ele><time>2020-10-25T09:00:47Z</time></trkpt><trkpt lat="42.7698371653" lon="0.5316329375"><ele>1697.87</ele><time>2020-10-25T09:01:08Z</time></trkpt><trkpt lat="42.7697419468" lon="0.5316360388"><ele>1700.23</ele><time>2020-10-25T09:01:26Z</time></trkpt><trkpt lat="42.7696639113" lon="0.5315704923"><ele>1703.48</ele><time>2020-10-25T09:01:44Z</time></trkpt><trkpt lat="42.7695845347" lon="0.5315232184"><ele>1706.83</ele><time>2020-10-25T09:02:01Z</time></trkpt><trkpt lat="42.7694946807" lon="0.5315326899"><ele>1708.60</ele><time>2020-10-25T09:02:16Z</time></trkpt><trkpt lat="42.7693973668" lon="0.5315026827"><ele>1710.32</ele><time>2020-10-25T09:02:31Z</time></trkpt><trkpt lat="42.7693168167" lon="0.5314784590"><ele>1714.56</ele><time>2020-10-25T09:02:54Z</time></trkpt><trkpt lat="42.7692335844" lon="0.5314229708"><ele>1718.56</ele><time>2020-10-25T09:03:14Z</time></trkpt><trkpt lat="42.7692141384" lon="0.5313111562"><ele>1720.01</ele><time>2020-10-25T09:03:42Z</time></trkpt><trkpt lat="42.7692179102" lon="0.5313377269"><ele>1720.24</ele><time>2020-10-25T09:10:20Z</time></trkpt><trkpt lat="42.7691491786" lon="0.5313656386"><ele>1720.26</ele><time>2020-10-25T09:10:53Z</time></trkpt><trkpt lat="42.7691131365" lon="0.5312402453"><ele>1721.12</ele><time>2020-10-25T09:11:10Z</time></trkpt><trkpt lat="42.7690972947" lon="0.5311445240"><ele>1723.44</ele><time>2020-10-25T09:11:34Z</time></trkpt><trkpt lat="42.7690678742" lon="0.5310503114"><ele>1723.42</ele><time>2020-10-25T09:11:49Z</time></trkpt><trkpt lat="42.7689826302" lon="0.5309813283"><ele>1724.25</ele><time>2020-10-25T09:12:01Z</time></trkpt><trkpt lat="42.7689477615" lon="0.5308631435"><ele>1725.85</ele><time>2020-10-25T09:12:16Z</time></trkpt><trkpt lat="42.7689087018" lon="0.5307443719"><ele>1728.53</ele><time>2020-10-25T09:12:31Z</time></trkpt><trkpt lat="42.7688952070" lon="0.5306178052"><ele>1731.77</ele><time>2020-10-25T09:12:46Z</time></trkpt><trkpt lat="42.7688397188" lon="0.5305439606"><ele>1734.27</ele><time>2020-10-25T09:13:02Z</time></trkpt><trkpt lat="42.7687480208" lon="0.5304912385"><ele>1736.28</ele><time>2020-10-25T09:13:17Z</time></trkpt><trkpt lat="42.7686568256" lon="0.5304387677"><ele>1738.94</ele><time>2020-10-25T09:13:33Z</time></trkpt><trkpt lat="42.7685823943" lon="0.5303458963"><ele>1741.58</ele><time>2020-10-25T09:13:51Z</time></trkpt><trkpt lat="42.7684803028" lon="0.5303408671"><ele>1743.22</ele><time>2020-10-25T09:14:05Z</time></trkpt><trkpt lat="42.7683829051" lon="0.5303504225"><ele>1744.96</ele><time>2020-10-25T09:14:21Z</time></trkpt><trkpt lat="42.7682889439" lon="0.5303537752"><ele>1746.46</ele><time>2020-10-25T09:14:37Z</time></trkpt><trkpt lat="42.7682038676" lon="0.5303443037"><ele>1748.11</ele><time>2020-10-25T09:14:51Z</time></trkpt><trkpt lat="42.7680965792" lon="0.5303481594"><ele>1750.77</ele><time>2020-10-25T09:15:06Z</time></trkpt><trkpt lat="42.7679928951" lon="0.5303375144"><ele>1752.42</ele><time>2020-10-25T09:15:20Z</time></trkpt><trkpt lat="42.7678919770" lon="0.5303317308"><ele>1753.96</ele><time>2020-10-25T09:15:34Z</time></trkpt><trkpt lat="42.7677944954" lon="0.5303079262"><ele>1754.75</ele><time>2020-10-25T09:15:48Z</time></trkpt><trkpt lat="42.7677053120" lon="0.5302907433"><ele>1757.40</ele><time>2020-10-25T09:16:03Z</time></trkpt><trkpt lat="42.7676078305" lon="0.5302692018"><ele>1759.86</ele><time>2020-10-25T09:16:20Z</time></trkpt><trkpt lat="42.7675102651" lon="0.5302648433"><ele>1762.43</ele><time>2020-10-25T09:16:34Z</time></trkpt><trkpt lat="42.7674221713" lon="0.5302730575"><ele>1763.93</ele><time>2020-10-25T09:16:48Z</time></trkpt><trkpt lat="42.7673267014" lon="0.5302902404"><ele>1765.43</ele><time>2020-10-25T09:17:11Z</time></trkpt><trkpt lat="42.7672256157" lon="0.5302729737"><ele>1766.99</ele><time>2020-10-25T09:17:24Z</time></trkpt><trkpt lat="42.7671324089" lon="0.5302655976"><ele>1767.88</ele><time>2020-10-25T09:17:36Z</time></trkpt><trkpt lat="42.7670478355" lon="0.5302153062"><ele>1769.43</ele><time>2020-10-25T09:17:49Z</time></trkpt><trkpt lat="42.7669430617" lon="0.5301770847"><ele>1771.05</ele><time>2020-10-25T09:18:03Z</time></trkpt><trkpt lat="42.7668475918" lon="0.5301604047"><ele>1773.66</ele><time>2020-10-25T09:18:17Z</time></trkpt><trkpt lat="42.7667459194" lon="0.5301749054"><ele>1774.61</ele><time>2020-10-25T09:18:31Z</time></trkpt><trkpt lat="42.7666471805" lon="0.5302070919"><ele>1776.20</ele><time>2020-10-25T09:18:44Z</time></trkpt><trkpt lat="42.7665486094" lon="0.5302531086"><ele>1780.34</ele><time>2020-10-25T09:19:02Z</time></trkpt><trkpt lat="42.7664639521" lon="0.5303295515"><ele>1781.25</ele><time>2020-10-25T09:19:16Z</time></trkpt><trkpt lat="42.7664042730" lon="0.5304375943"><ele>1781.14</ele><time>2020-10-25T09:19:27Z</time></trkpt><trkpt lat="42.7663292550" lon="0.5305179767"><ele>1781.13</ele><time>2020-10-25T09:19:40Z</time></trkpt><trkpt lat="42.7662363835" lon="0.5305541866"><ele>1782.31</ele><time>2020-10-25T09:19:55Z</time></trkpt><trkpt lat="42.7661477868" lon="0.5306126922"><ele>1784.95</ele><time>2020-10-25T09:20:11Z</time></trkpt><trkpt lat="42.7660647221" lon="0.5306437891"><ele>1786.74</ele><time>2020-10-25T09:20:25Z</time></trkpt><trkpt lat="42.7660351340" lon="0.5307320505"><ele>1786.57</ele><time>2020-10-25T09:20:48Z</time></trkpt><trkpt lat="42.7659570146" lon="0.5308141094"><ele>1788.61</ele><time>2020-10-25T09:21:04Z</time></trkpt><trkpt lat="42.7658953238" lon="0.5309384130"><ele>1788.53</ele><time>2020-10-25T09:21:17Z</time></trkpt><trkpt lat="42.7658511512" lon="0.5310557596"><ele>1790.37</ele><time>2020-10-25T09:21:29Z</time></trkpt><trkpt lat="42.7658011951" lon="0.5311671551"><ele>1791.95</ele><time>2020-10-25T09:21:41Z</time></trkpt><trkpt lat="42.7657581121" lon="0.5312967394"><ele>1794.46</ele><time>2020-10-25T09:21:57Z</time></trkpt><trkpt lat="42.7657156158" lon="0.5314372201"><ele>1795.25</ele><time>2020-10-25T09:22:13Z</time></trkpt><trkpt lat="42.7656675037" lon="0.5315550696"><ele>1797.97</ele><time>2020-10-25T09:22:33Z</time></trkpt><trkpt lat="42.7655504923" lon="0.5316545628"><ele>1801.61</ele><time>2020-10-25T09:22:52Z</time></trkpt><trkpt lat="42.7655117679" lon="0.5317476019"><ele>1803.98</ele><time>2020-10-25T09:23:10Z</time></trkpt><trkpt lat="42.7654583752" lon="0.5318290740"><ele>1806.67</ele><time>2020-10-25T09:23:30Z</time></trkpt><trkpt lat="42.7653866261" lon="0.5319201853"><ele>1809.24</ele><time>2020-10-25T09:23:50Z</time></trkpt><trkpt lat="42.7653148770" lon="0.5320277251"><ele>1812.61</ele><time>2020-10-25T09:24:14Z</time></trkpt><trkpt lat="42.7652503364" lon="0.5320913438"><ele>1816.07</ele><time>2020-10-25T09:24:35Z</time></trkpt><trkpt lat="42.7651562076" lon="0.5321252067"><ele>1818.68</ele><time>2020-10-25T09:24:57Z</time></trkpt><trkpt lat="42.7650593966" lon="0.5321743246"><ele>1822.52</ele><time>2020-10-25T09:25:18Z</time></trkpt><trkpt lat="42.7649514377" lon="0.5322096962"><ele>1825.68</ele><time>2020-10-25T09:25:41Z</time></trkpt><trkpt lat="42.7648463286" lon="0.5322084390"><ele>1828.36</ele><time>2020-10-25T09:26:03Z</time></trkpt><trkpt lat="42.7647527866" lon="0.5322087742"><ele>1831.74</ele><time>2020-10-25T09:26:25Z</time></trkpt><trkpt lat="42.7646532096" lon="0.5322131328"><ele>1835.30</ele><time>2020-10-25T09:26:45Z</time></trkpt><trkpt lat="42.7645641938" lon="0.5321763363"><ele>1838.52</ele><time>2020-10-25T09:27:03Z</time></trkpt><trkpt lat="42.7644757647" lon="0.5321313255"><ele>1841.06</ele><time>2020-10-25T09:27:25Z</time></trkpt><trkpt lat="42.7644095477" lon="0.5320314970"><ele>1845.01</ele><time>2020-10-25T09:27:46Z</time></trkpt><trkpt lat="42.7643689793" lon="0.5318937823"><ele>1848.60</ele><time>2020-10-25T09:28:07Z</time></trkpt><trkpt lat="42.7643124014" lon="0.5317901820"><ele>1851.79</ele><time>2020-10-25T09:28:27Z</time></trkpt><trkpt lat="42.7642429154" lon="0.5317222048"><ele>1856.20</ele><time>2020-10-25T09:28:45Z</time></trkpt><trkpt lat="42.7641627844" lon="0.5317432433"><ele>1860.41</ele><time>2020-10-25T09:29:09Z</time></trkpt><trkpt lat="42.7640756126" lon="0.5316815525"><ele>1863.85</ele><time>2020-10-25T09:29:27Z</time></trkpt><trkpt lat="42.7639743593" lon="0.5316903535"><ele>1867.33</ele><time>2020-10-25T09:29:46Z</time></trkpt><trkpt lat="42.7639140934" lon="0.5316318478"><ele>1868.98</ele><time>2020-10-25T09:30:13Z</time></trkpt><trkpt lat="42.7638590243" lon="0.5315269064"><ele>1870.64</ele><time>2020-10-25T09:31:45Z</time></trkpt><trkpt lat="42.7637690026" lon="0.5314699933"><ele>1874.82</ele><time>2020-10-25T09:32:13Z</time></trkpt><trkpt lat="42.7636749577" lon="0.5314739328"><ele>1878.29</ele><time>2020-10-25T09:32:34Z</time></trkpt><trkpt lat="42.7636668272" lon="0.5316139106"><ele>1881.86</ele><time>2020-10-25T09:32:54Z</time></trkpt><trkpt lat="42.7636307012" lon="0.5317491107"><ele>1885.23</ele><time>2020-10-25T09:33:15Z</time></trkpt><trkpt lat="42.7635307889" lon="0.5317403097"><ele>1887.78</ele><time>2020-10-25T09:33:36Z</time></trkpt><trkpt lat="42.7634759713" lon="0.5316534732"><ele>1891.29</ele><time>2020-10-25T09:33:57Z</time></trkpt><trkpt lat="42.7634389233" lon="0.5315608531"><ele>1895.41</ele><time>2020-10-25T09:34:17Z</time></trkpt><trkpt lat="42.7634706907" lon="0.5314207915"><ele>1897.01</ele><time>2020-10-25T09:34:34Z</time></trkpt><trkpt lat="42.7634388395" lon="0.5312798079"><ele>1899.46</ele><time>2020-10-25T09:34:55Z</time></trkpt><trkpt lat="42.7633910626" lon="0.5311547499"><ele>1902.02</ele><time>2020-10-25T09:35:14Z</time></trkpt><trkpt lat="42.7633243427" lon="0.5310512334"><ele>1905.44</ele><time>2020-10-25T09:35:35Z</time></trkpt><trkpt lat="42.7632616460" lon="0.5309543386"><ele>1909.16</ele><time>2020-10-25T09:35:56Z</time></trkpt><trkpt lat="42.7632478159" lon="0.5308193900"><ele>1912.44</ele><time>2020-10-25T09:36:18Z</time></trkpt><trkpt lat="42.7632653341" lon="0.5306911469"><ele>1915.69</ele><time>2020-10-25T09:36:35Z</time></trkpt><trkpt lat="42.7632574551" lon="0.5305585451"><ele>1918.24</ele><time>2020-10-25T09:36:53Z</time></trkpt><trkpt lat="42.7632721234" lon="0.5304293800"><ele>1921.02</ele><time>2020-10-25T09:37:13Z</time></trkpt><trkpt lat="42.7632446308" lon="0.5303182360"><ele>1921.75</ele><time>2020-10-25T09:37:48Z</time></trkpt><trkpt lat="42.7632599697" lon="0.5303674378"><ele>1926.56</ele><time>2020-10-25T09:43:33Z</time></trkpt><trkpt lat="42.7631774079" lon="0.5303613190"><ele>1924.08</ele><time>2020-10-25T09:45:49Z</time></trkpt><trkpt lat="42.7630785014" lon="0.5303111114"><ele>1928.11</ele><time>2020-10-25T09:46:07Z</time></trkpt><trkpt lat="42.7629807685" lon="0.5303583015"><ele>1931.48</ele><time>2020-10-25T09:46:26Z</time></trkpt><trkpt lat="42.7628952730" lon="0.5304073356"><ele>1936.01</ele><time>2020-10-25T09:46:47Z</time></trkpt><trkpt lat="42.7628043294" lon="0.5304520950"><ele>1940.12</ele><time>2020-10-25T09:47:09Z</time></trkpt><trkpt lat="42.7627468295" lon="0.5305305496"><ele>1942.60</ele><time>2020-10-25T09:47:27Z</time></trkpt><trkpt lat="42.7626736555" lon="0.5306067411"><ele>1945.28</ele><time>2020-10-25T09:47:47Z</time></trkpt><trkpt lat="42.7626321651" lon="0.5307203997"><ele>1948.72</ele><time>2020-10-25T09:48:05Z</time></trkpt><trkpt lat="42.7625744976" lon="0.5308151152"><ele>1952.23</ele><time>2020-10-25T09:48:23Z</time></trkpt><trkpt lat="42.7624835540" lon="0.5308284424"><ele>1956.37</ele><time>2020-10-25T09:48:44Z</time></trkpt><trkpt lat="42.7624076977" lon="0.5307744630"><ele>1959.22</ele><time>2020-10-25T09:49:02Z</time></trkpt><trkpt lat="42.7624141518" lon="0.5306535959"><ele>1961.82</ele><time>2020-10-25T09:49:17Z</time></trkpt><trkpt lat="42.7623948734" lon="0.5305381771"><ele>1964.31</ele><time>2020-10-25T09:49:32Z</time></trkpt><trkpt lat="42.7623651177" lon="0.5304247700"><ele>1966.94</ele><time>2020-10-25T09:49:50Z</time></trkpt><trkpt lat="42.7623103838" lon="0.5303320661"><ele>1969.95</ele><time>2020-10-25T09:50:09Z</time></trkpt><trkpt lat="42.7622449212" lon="0.5302316509"><ele>1973.17</ele><time>2020-10-25T09:50:51Z</time></trkpt><trkpt lat="42.7622092143" lon="0.5301136337"><ele>1974.93</ele><time>2020-10-25T09:51:16Z</time></trkpt><trkpt lat="42.7621414047" lon="0.5299920961"><ele>1977.60</ele><time>2020-10-25T09:51:36Z</time></trkpt><trkpt lat="42.7620314341" lon="0.5299501028"><ele>1980.45</ele><time>2020-10-25T09:51:55Z</time></trkpt><trkpt lat="42.7619323600" lon="0.5298864841"><ele>1982.71</ele><time>2020-10-25T09:52:16Z</time></trkpt><trkpt lat="42.7618645504" lon="0.5297931097"><ele>1986.26</ele><time>2020-10-25T09:52:37Z</time></trkpt><trkpt lat="42.7617973275" lon="0.5297043454"><ele>1988.68</ele><time>2020-10-25T09:52:54Z</time></trkpt><trkpt lat="42.7616953198" lon="0.5296066124"><ele>1991.99</ele><time>2020-10-25T09:53:14Z</time></trkpt><trkpt lat="42.7616410051" lon="0.5294910260"><ele>1994.42</ele><time>2020-10-25T09:53:36Z</time></trkpt><trkpt lat="42.7616114169" lon="0.5293761101"><ele>1997.20</ele><time>2020-10-25T09:53:53Z</time></trkpt><trkpt lat="42.7615975030" lon="0.5292590987"><ele>2000.63</ele><time>2020-10-25T09:54:12Z</time></trkpt><trkpt lat="42.7615607064" lon="0.5291539896"><ele>2004.17</ele><time>2020-10-25T09:54:34Z</time></trkpt><trkpt lat="42.7615307830" lon="0.5290531553"><ele>2005.82</ele><time>2020-10-25T09:54:54Z</time></trkpt><trkpt lat="42.7615313698" lon="0.5289373174"><ele>2007.55</ele><time>2020-10-25T09:55:14Z</time></trkpt><trkpt lat="42.7614516579" lon="0.5288824998"><ele>2010.88</ele><time>2020-10-25T09:55:38Z</time></trkpt><trkpt lat="42.7614537533" lon="0.5287567712"><ele>2011.85</ele><time>2020-10-25T09:56:03Z</time></trkpt><trkpt lat="42.7614426892" lon="0.5286261812"><ele>2014.61</ele><time>2020-10-25T09:56:21Z</time></trkpt><trkpt lat="42.7614311222" lon="0.5284901429"><ele>2018.03</ele><time>2020-10-25T09:56:40Z</time></trkpt><trkpt lat="42.7614149451" lon="0.5283656716"><ele>2020.53</ele><time>2020-10-25T09:56:59Z</time></trkpt><trkpt lat="42.7613528352" lon="0.5283016339"><ele>2023.18</ele><time>2020-10-25T09:57:20Z</time></trkpt><trkpt lat="42.7612763084" lon="0.5282820202"><ele>2028.11</ele><time>2020-10-25T09:57:41Z</time></trkpt><trkpt lat="42.7611897234" lon="0.5282831099"><ele>2031.37</ele><time>2020-10-25T09:58:02Z</time></trkpt><trkpt lat="42.7611162979" lon="0.5283469800"><ele>2034.53</ele><time>2020-10-25T09:58:22Z</time></trkpt><trkpt lat="42.7610416152" lon="0.5284043960"><ele>2037.96</ele><time>2020-10-25T09:58:43Z</time></trkpt><trkpt lat="42.7609669324" lon="0.5284783244"><ele>2041.56</ele><time>2020-10-25T09:59:05Z</time></trkpt><trkpt lat="42.7609189879" lon="0.5285741296"><ele>2044.23</ele><time>2020-10-25T09:59:27Z</time></trkpt><trkpt lat="42.7608907409" lon="0.5286844354"><ele>2047.14</ele><time>2020-10-25T09:59:45Z</time></trkpt><trkpt lat="42.7608010545" lon="0.5286987685"><ele>2050.43</ele><time>2020-10-25T10:00:06Z</time></trkpt><trkpt lat="42.7607545350" lon="0.5286328867"><ele>2055.10</ele><time>2020-10-25T10:00:32Z</time></trkpt><trkpt lat="42.7607260365" lon="0.5286101718"><ele>2053.88</ele><time>2020-10-25T10:01:54Z</time></trkpt><trkpt lat="42.7606346738" lon="0.5286419392"><ele>2054.90</ele><time>2020-10-25T10:05:12Z</time></trkpt><trkpt lat="42.7605739888" lon="0.5285530072"><ele>2058.82</ele><time>2020-10-25T10:05:29Z</time></trkpt><trkpt lat="42.7604963724" lon="0.5285724532"><ele>2061.44</ele><time>2020-10-25T10:05:46Z</time></trkpt><trkpt lat="42.7603989746" lon="0.5285550188"><ele>2064.01</ele><time>2020-10-25T10:06:01Z</time></trkpt><trkpt lat="42.7603056841" lon="0.5285347346"><ele>2064.94</ele><time>2020-10-25T10:06:15Z</time></trkpt><trkpt lat="42.7602146566" lon="0.5284888856"><ele>2066.90</ele><time>2020-10-25T10:06:32Z</time></trkpt><trkpt lat="42.7601145767" lon="0.5284647457"><ele>2069.79</ele><time>2020-10-25T10:06:49Z</time></trkpt><trkpt lat="42.7600307576" lon="0.5284105986"><ele>2073.21</ele><time>2020-10-25T10:07:10Z</time></trkpt><trkpt lat="42.7599747665" lon="0.5283195712"><ele>2075.90</ele><time>2020-10-25T10:07:28Z</time></trkpt><trkpt lat="42.7598936297" lon="0.5283791665"><ele>2077.71</ele><time>2020-10-25T10:07:42Z</time></trkpt><trkpt lat="42.7598124929" lon="0.5284333974"><ele>2079.30</ele><time>2020-10-25T10:07:56Z</time></trkpt><trkpt lat="42.7597371396" lon="0.5285001174"><ele>2081.21</ele><time>2020-10-25T10:08:14Z</time></trkpt><trkpt lat="42.7596461121" lon="0.5285413563"><ele>2083.85</ele><time>2020-10-25T10:08:30Z</time></trkpt><trkpt lat="42.7595445234" lon="0.5285412725"><ele>2087.09</ele><time>2020-10-25T10:08:47Z</time></trkpt><trkpt lat="42.7594394144" lon="0.5285428651"><ele>2089.60</ele><time>2020-10-25T10:09:04Z</time></trkpt><trkpt lat="42.7593395859" lon="0.5285567790"><ele>2092.13</ele><time>2020-10-25T10:09:19Z</time></trkpt><trkpt lat="42.7592650708" lon="0.5286280252"><ele>2093.89</ele><time>2020-10-25T10:09:33Z</time></trkpt><trkpt lat="42.7591765579" lon="0.5286854412"><ele>2096.83</ele><time>2020-10-25T10:11:35Z</time></trkpt><trkpt lat="42.7590884641" lon="0.5286897160"><ele>2096.87</ele><time>2020-10-25T10:11:47Z</time></trkpt><trkpt lat="42.7589928266" lon="0.5286971759"><ele>2096.92</ele><time>2020-10-25T10:11:58Z</time></trkpt><trkpt lat="42.7588976920" lon="0.5286811665"><ele>2096.98</ele><time>2020-10-25T10:12:10Z</time></trkpt><trkpt lat="42.7588002104" lon="0.5286623910"><ele>2097.95</ele><time>2020-10-25T10:12:28Z</time></trkpt><trkpt lat="42.7587107755" lon="0.5286364071"><ele>2100.54</ele><time>2020-10-25T10:12:44Z</time></trkpt><trkpt lat="42.7586455643" lon="0.5285626464"><ele>2104.15</ele><time>2020-10-25T10:13:02Z</time></trkpt><trkpt lat="42.7585758269" lon="0.5284603871"><ele>2105.38</ele><time>2020-10-25T10:13:19Z</time></trkpt><trkpt lat="42.7585155610" lon="0.5283720419"><ele>2106.99</ele><time>2020-10-25T10:13:33Z</time></trkpt><trkpt lat="42.7584440634" lon="0.5282759015"><ele>2110.60</ele><time>2020-10-25T10:13:51Z</time></trkpt><trkpt lat="42.7583989687" lon="0.5281962734"><ele>2113.29</ele><time>2020-10-25T10:14:14Z</time></trkpt><trkpt lat="42.7583205979" lon="0.5281546991"><ele>2118.56</ele><time>2020-10-25T10:14:38Z</time></trkpt><trkpt lat="42.7582374495" lon="0.5280912481"><ele>2122.07</ele><time>2020-10-25T10:15:02Z</time></trkpt><trkpt lat="42.7581556421" lon="0.5280349217"><ele>2126.32</ele><time>2020-10-25T10:15:27Z</time></trkpt><trkpt lat="42.7581381239" lon="0.5279245321"><ele>2131.40</ele><time>2020-10-25T10:15:49Z</time></trkpt><trkpt lat="42.7580537181" lon="0.5278846342"><ele>2136.06</ele><time>2020-10-25T10:16:13Z</time></trkpt><trkpt lat="42.7579796221" lon="0.5278096162"><ele>2139.41</ele><time>2020-10-25T10:16:37Z</time></trkpt><trkpt lat="42.7579344437" lon="0.5277685449"><ele>2142.92</ele><time>2020-10-25T10:17:58Z</time></trkpt><trkpt lat="42.7579749282" lon="0.5276842229"><ele>2147.33</ele><time>2020-10-25T10:18:20Z</time></trkpt><trkpt lat="42.7580180112" lon="0.5275994819"><ele>2151.55</ele><time>2020-10-25T10:18:43Z</time></trkpt><trkpt lat="42.7580724098" lon="0.5275224522"><ele>2154.30</ele><time>2020-10-25T10:19:02Z</time></trkpt><trkpt lat="42.7581431530" lon="0.5275399704"><ele>2155.84</ele><time>2020-10-25T10:19:20Z</time></trkpt><trkpt lat="42.7581380401" lon="0.5273977295"><ele>2158.40</ele><time>2020-10-25T10:19:37Z</time></trkpt><trkpt lat="42.7581493556" lon="0.5272683129"><ele>2160.82</ele><time>2020-10-25T10:19:55Z</time></trkpt><trkpt lat="42.7581931092" lon="0.5271727592"><ele>2164.28</ele><time>2020-10-25T10:20:16Z</time></trkpt><trkpt lat="42.7582309954" lon="0.5270584300"><ele>2166.98</ele><time>2020-10-25T10:20:38Z</time></trkpt><trkpt lat="42.7582256310" lon="0.5269429274"><ele>2171.89</ele><time>2020-10-25T10:21:01Z</time></trkpt><trkpt lat="42.7581784409" lon="0.5268833321"><ele>2175.34</ele><time>2020-10-25T10:21:24Z</time></trkpt><trkpt lat="42.7580980584" lon="0.5269073043"><ele>2178.71</ele><time>2020-10-25T10:21:44Z</time></trkpt><trkpt lat="42.7580628544" lon="0.5268002674"><ele>2182.24</ele><time>2020-10-25T10:22:04Z</time></trkpt><trkpt lat="42.7580268960" lon="0.5266907997"><ele>2184.90</ele><time>2020-10-25T10:22:23Z</time></trkpt><trkpt lat="42.7579607628" lon="0.5266379099"><ele>2187.44</ele><time>2020-10-25T10:22:42Z</time></trkpt><trkpt lat="42.7578761894" lon="0.5266389996"><ele>2194.00</ele><time>2020-10-25T10:23:04Z</time></trkpt><trkpt lat="42.7577756904" lon="0.5266115069"><ele>2195.41</ele><time>2020-10-25T10:23:43Z</time></trkpt><trkpt lat="42.7576969005" lon="0.5266160332"><ele>2200.25</ele><time>2020-10-25T10:25:00Z</time></trkpt><trkpt lat="42.7575965691" lon="0.5265847687"><ele>2203.74</ele><time>2020-10-25T10:25:17Z</time></trkpt><trkpt lat="42.7575012669" lon="0.5265550129"><ele>2207.42</ele><time>2020-10-25T10:25:37Z</time></trkpt><trkpt lat="42.7574148495" lon="0.5265382491"><ele>2212.57</ele><time>2020-10-25T10:25:57Z</time></trkpt><trkpt lat="42.7573271748" lon="0.5265751295"><ele>2215.77</ele><time>2020-10-25T10:26:16Z</time></trkpt><trkpt lat="42.7572451998" lon="0.5266296118"><ele>2219.44</ele><time>2020-10-25T10:26:34Z</time></trkpt><trkpt lat="42.7571763005" lon="0.5267175380"><ele>2223.73</ele><time>2020-10-25T10:26:47Z</time></trkpt><trkpt lat="42.7570841834" lon="0.5267455336"><ele>2223.47</ele><time>2020-10-25T10:26:59Z</time></trkpt><trkpt lat="42.7569973469" lon="0.5267866887"><ele>2225.59</ele><time>2020-10-25T10:27:14Z</time></trkpt><trkpt lat="42.7569080796" lon="0.5268305261"><ele>2229.76</ele><time>2020-10-25T10:27:29Z</time></trkpt><trkpt lat="42.7568165492" lon="0.5268632155"><ele>2230.55</ele><time>2020-10-25T10:27:44Z</time></trkpt><trkpt lat="42.7567253541" lon="0.5268978328"><ele>2231.44</ele><time>2020-10-25T10:28:01Z</time></trkpt><trkpt lat="42.7566312253" lon="0.5269138422"><ele>2234.12</ele><time>2020-10-25T10:28:26Z</time></trkpt><trkpt lat="42.7565466519" lon="0.5269671511"><ele>2235.76</ele><time>2020-10-25T10:28:43Z</time></trkpt><trkpt lat="42.7564630006" lon="0.5269989185"><ele>2238.31</ele><time>2020-10-25T10:29:01Z</time></trkpt><trkpt lat="42.7563853841" lon="0.5269596074"><ele>2239.90</ele><time>2020-10-25T10:29:23Z</time></trkpt><trkpt lat="42.7563019842" lon="0.5269549135"><ele>2241.56</ele><time>2020-10-25T10:29:42Z</time></trkpt><trkpt lat="42.7562260441" lon="0.5269729346"><ele>2248.13</ele><time>2020-10-25T10:32:20Z</time></trkpt><trkpt lat="42.7562119626" lon="0.5269777123"><ele>2245.05</ele><time>2020-10-25T10:35:48Z</time></trkpt><trkpt lat="42.7561444044" lon="0.5270542391"><ele>2248.30</ele><time>2020-10-25T10:36:10Z</time></trkpt><trkpt lat="42.7560673747" lon="0.5271220487"><ele>2248.26</ele><time>2020-10-25T10:36:22Z</time></trkpt><trkpt lat="42.7560114674" lon="0.5272012576"><ele>2248.27</ele><time>2020-10-25T10:36:35Z</time></trkpt><trkpt lat="42.7559397183" lon="0.5272731744"><ele>2248.25</ele><time>2020-10-25T10:36:47Z</time></trkpt><trkpt lat="42.7558483556" lon="0.5273030978"><ele>2249.10</ele><time>2020-10-25T10:36:59Z</time></trkpt><trkpt lat="42.7557898499" lon="0.5273878388"><ele>2250.90</ele><time>2020-10-25T10:37:12Z</time></trkpt><trkpt lat="42.7557254769" lon="0.5274709035"><ele>2251.84</ele><time>2020-10-25T10:37:39Z</time></trkpt><trkpt lat="42.7556564938" lon="0.5275328457"><ele>2251.86</ele><time>2020-10-25T10:37:50Z</time></trkpt><trkpt lat="42.7556182723" lon="0.5276443250"><ele>2252.65</ele><time>2020-10-25T10:38:04Z</time></trkpt><trkpt lat="42.7555372193" lon="0.5276972987"><ele>2254.19</ele><time>2020-10-25T10:38:19Z</time></trkpt><trkpt lat="42.7554465272" lon="0.5277309101"><ele>2258.29</ele><time>2020-10-25T10:38:37Z</time></trkpt><trkpt lat="42.7553663123" lon="0.5277744122"><ele>2259.19</ele><time>2020-10-25T10:38:55Z</time></trkpt><trkpt lat="42.7553101536" lon="0.5278597400"><ele>2260.20</ele><time>2020-10-25T10:39:11Z</time></trkpt><trkpt lat="42.7552353032" lon="0.5279262923"><ele>2262.81</ele><time>2020-10-25T10:39:26Z</time></trkpt><trkpt lat="42.7551596984" lon="0.5279920902"><ele>2262.81</ele><time>2020-10-25T10:39:37Z</time></trkpt><trkpt lat="42.7550922241" lon="0.5280648451"><ele>2262.84</ele><time>2020-10-25T10:39:52Z</time></trkpt><trkpt lat="42.7550591156" lon="0.5281003844"><ele>2263.68</ele><time>2020-10-25T10:40:28Z</time></trkpt><trkpt lat="42.7549797390" lon="0.5281650089"><ele>2263.69</ele><time>2020-10-25T10:40:39Z</time></trkpt><trkpt lat="42.7548991889" lon="0.5282419547"><ele>2266.30</ele><time>2020-10-25T10:40:52Z</time></trkpt><trkpt lat="42.7548229974" lon="0.5283013824"><ele>2267.19</ele><time>2020-10-25T10:41:04Z</time></trkpt><trkpt lat="42.7547407709" lon="0.5283735506"><ele>2268.89</ele><time>2020-10-25T10:41:18Z</time></trkpt><trkpt lat="42.7546563651" lon="0.5284195673"><ele>2270.62</ele><time>2020-10-25T10:41:33Z</time></trkpt><trkpt lat="42.7545829397" lon="0.5284993630"><ele>2272.28</ele><time>2020-10-25T10:41:49Z</time></trkpt><trkpt lat="42.7544965222" lon="0.5285554379"><ele>2273.96</ele><time>2020-10-25T10:42:05Z</time></trkpt><trkpt lat="42.7544189896" lon="0.5286069028"><ele>2276.71</ele><time>2020-10-25T10:42:19Z</time></trkpt><trkpt lat="42.7543499228" lon="0.5286906380"><ele>2279.22</ele><time>2020-10-25T10:42:34Z</time></trkpt><trkpt lat="42.7542754076" lon="0.5287496466"><ele>2282.95</ele><time>2020-10-25T10:42:52Z</time></trkpt><trkpt lat="42.7542008087" lon="0.5287954118"><ele>2285.79</ele><time>2020-10-25T10:43:13Z</time></trkpt><trkpt lat="42.7541392855" lon="0.5288594496"><ele>2289.36</ele><time>2020-10-25T10:43:32Z</time></trkpt><trkpt lat="42.7540817019" lon="0.5289466213"><ele>2292.62</ele><time>2020-10-25T10:43:53Z</time></trkpt><trkpt lat="42.7540354338" lon="0.5290443543"><ele>2295.21</ele><time>2020-10-25T10:44:15Z</time></trkpt><trkpt lat="42.7539898362" lon="0.5291466136"><ele>2298.88</ele><time>2020-10-25T10:44:42Z</time></trkpt><trkpt lat="42.7539512794" lon="0.5292443465"><ele>2301.52</ele><time>2020-10-25T10:45:06Z</time></trkpt><trkpt lat="42.7538788598" lon="0.5293321889"><ele>2305.48</ele><time>2020-10-25T10:47:42Z</time></trkpt><trkpt lat="42.7537947055" lon="0.5293490365"><ele>2308.87</ele><time>2020-10-25T10:48:01Z</time></trkpt><trkpt lat="42.7537530474" lon="0.5294477753"><ele>2312.63</ele><time>2020-10-25T10:48:22Z</time></trkpt><trkpt lat="42.7537088748" lon="0.5295413174"><ele>2317.68</ele><time>2020-10-25T10:48:47Z</time></trkpt><trkpt lat="42.7536448371" lon="0.5296285730"><ele>2321.39</ele><time>2020-10-25T10:49:12Z</time></trkpt><trkpt lat="42.7535938751" lon="0.5297369510"><ele>2330.08</ele><time>2020-10-25T10:49:49Z</time></trkpt><trkpt lat="42.7535370458" lon="0.5298267212"><ele>2336.20</ele><time>2020-10-25T10:50:12Z</time></trkpt><trkpt lat="42.7535093855" lon="0.5299239513"><ele>2336.87</ele><time>2020-10-25T10:50:35Z</time></trkpt><trkpt lat="42.7534722537" lon="0.5300319102"><ele>2344.97</ele><time>2020-10-25T10:50:59Z</time></trkpt><trkpt lat="42.7534297574" lon="0.5301336665"><ele>2346.77</ele><time>2020-10-25T10:51:18Z</time></trkpt><trkpt lat="42.7533655521" lon="0.5302167311"><ele>2353.43</ele><time>2020-10-25T10:51:40Z</time></trkpt><trkpt lat="42.7533156797" lon="0.5303051602"><ele>2355.23</ele><time>2020-10-25T10:52:01Z</time></trkpt><trkpt lat="42.7532813139" lon="0.5304217525"><ele>2357.83</ele><time>2020-10-25T10:52:18Z</time></trkpt><trkpt lat="42.7532465290" lon="0.5305337347"><ele>2360.52</ele><time>2020-10-25T10:52:38Z</time></trkpt><trkpt lat="42.7532131691" lon="0.5306444596"><ele>2358.23</ele><time>2020-10-25T10:52:53Z</time></trkpt><trkpt lat="42.7531839162" lon="0.5307540949"><ele>2358.24</ele><time>2020-10-25T10:53:07Z</time></trkpt><trkpt lat="42.7531761210" lon="0.5308519956"><ele>2359.47</ele><time>2020-10-25T11:00:50Z</time></trkpt><trkpt lat="42.7531995904" lon="0.5309636425"><ele>2359.43</ele><time>2020-10-25T11:01:03Z</time></trkpt><trkpt lat="42.7532106545" lon="0.5310898740"><ele>2357.48</ele><time>2020-10-25T11:01:13Z</time></trkpt><trkpt lat="42.7532380633" lon="0.5312215537"><ele>2354.66</ele><time>2020-10-25T11:01:21Z</time></trkpt><trkpt lat="42.7532729320" lon="0.5313411634"><ele>2353.94</ele><time>2020-10-25T11:01:30Z</time></trkpt><trkpt lat="42.7532977425" lon="0.5314615276"><ele>2352.10</ele><time>2020-10-25T11:01:40Z</time></trkpt><trkpt lat="42.7533094771" lon="0.5315912794"><ele>2351.30</ele><time>2020-10-25T11:01:50Z</time></trkpt><trkpt lat="42.7533268277" lon="0.5317286588"><ele>2351.34</ele><time>2020-10-25T11:02:01Z</time></trkpt><trkpt lat="42.7533498779" lon="0.5318492744"><ele>2350.54</ele><time>2020-10-25T11:02:09Z</time></trkpt><trkpt lat="42.7533672284" lon="0.5319786910"><ele>2350.53</ele><time>2020-10-25T11:02:18Z</time></trkpt><trkpt lat="42.7533836570" lon="0.5321040843"><ele>2350.54</ele><time>2020-10-25T11:02:29Z</time></trkpt><trkpt lat="42.7533920389" lon="0.5322397035"><ele>2350.61</ele><time>2020-10-25T11:02:39Z</time></trkpt><trkpt lat="42.7534086350" lon="0.5323614087"><ele>2350.60</ele><time>2020-10-25T11:02:49Z</time></trkpt><trkpt lat="42.7534067072" lon="0.5324839521"><ele>2349.55</ele><time>2020-10-25T11:02:58Z</time></trkpt><trkpt lat="42.7534243092" lon="0.5326019693"><ele>2346.77</ele><time>2020-10-25T11:03:42Z</time></trkpt><trkpt lat="42.7534248121" lon="0.5327274464"><ele>2352.51</ele><time>2020-10-25T11:03:52Z</time></trkpt><trkpt lat="42.7534477785" lon="0.5328321364"><ele>2353.04</ele><time>2020-10-25T11:04:04Z</time></trkpt><trkpt lat="42.7534761932" lon="0.5329380836"><ele>2347.76</ele><time>2020-10-25T11:04:23Z</time></trkpt><trkpt lat="42.7534840722" lon="0.5330525804"><ele>2344.53</ele><time>2020-10-25T11:04:34Z</time></trkpt><trkpt lat="42.7535047755" lon="0.5331277661"><ele>2342.81</ele><time>2020-10-25T11:04:53Z</time></trkpt><trkpt lat="42.7535543125" lon="0.5331433564"><ele>2335.96</ele><time>2020-10-25T11:05:28Z</time></trkpt><trkpt lat="42.7535931207" lon="0.5332177877"><ele>2331.27</ele><time>2020-10-25T11:08:19Z</time></trkpt><trkpt lat="42.7536132373" lon="0.5333399121"><ele>2328.17</ele><time>2020-10-25T11:08:33Z</time></trkpt><trkpt lat="42.7536206972" lon="0.5334516428"><ele>2324.46</ele><time>2020-10-25T11:08:49Z</time></trkpt><trkpt lat="42.7536256425" lon="0.5335715879"><ele>2318.84</ele><time>2020-10-25T11:09:07Z</time></trkpt><trkpt lat="42.7536521293" lon="0.5337081291"><ele>2315.53</ele><time>2020-10-25T11:09:20Z</time></trkpt><trkpt lat="42.7536771912" lon="0.5338308401"><ele>2312.96</ele><time>2020-10-25T11:09:31Z</time></trkpt><trkpt lat="42.7537265606" lon="0.5339306686"><ele>2311.10</ele><time>2020-10-25T11:09:43Z</time></trkpt><trkpt lat="42.7537704818" lon="0.5340391304"><ele>2307.35</ele><time>2020-10-25T11:09:55Z</time></trkpt><trkpt lat="42.7538277302" lon="0.5341289006"><ele>2306.44</ele><time>2020-10-25T11:10:07Z</time></trkpt><trkpt lat="42.7538816258" lon="0.5342178326"><ele>2305.56</ele><time>2020-10-25T11:10:50Z</time></trkpt><trkpt lat="42.7539075259" lon="0.5343454890"><ele>2305.55</ele><time>2020-10-25T11:11:01Z</time></trkpt><trkpt lat="42.7539582364" lon="0.5344616622"><ele>2305.55</ele><time>2020-10-25T11:11:25Z</time></trkpt><trkpt lat="42.7539767604" lon="0.5345941801"><ele>2311.21</ele><time>2020-10-25T11:12:07Z</time></trkpt><trkpt lat="42.7539972123" lon="0.5347171426"><ele>2312.06</ele><time>2020-10-25T11:12:28Z</time></trkpt><trkpt lat="42.7540475037" lon="0.5348366685"><ele>2312.09</ele><time>2020-10-25T11:12:40Z</time></trkpt><trkpt lat="42.7541222703" lon="0.5349281989"><ele>2312.06</ele><time>2020-10-25T11:13:26Z</time></trkpt><trkpt lat="42.7541765012" lon="0.5350352358"><ele>2313.94</ele><time>2020-10-25T11:13:39Z</time></trkpt><trkpt lat="42.7542552911" lon="0.5351382494"><ele>2315.59</ele><time>2020-10-25T11:13:52Z</time></trkpt><trkpt lat="42.7542950213" lon="0.5352565181"><ele>2317.56</ele><time>2020-10-25T11:14:07Z</time></trkpt><trkpt lat="42.7543627471" lon="0.5353586935"><ele>2318.38</ele><time>2020-10-25T11:14:21Z</time></trkpt><trkpt lat="42.7544199117" lon="0.5354756210"><ele>2319.16</ele><time>2020-10-25T11:14:33Z</time></trkpt><trkpt lat="42.7544694487" lon="0.5356008466"><ele>2319.99</ele><time>2020-10-25T11:14:43Z</time></trkpt><trkpt lat="42.7545292955" lon="0.5357005913"><ele>2320.00</ele><time>2020-10-25T11:14:53Z</time></trkpt><trkpt lat="42.7546012122" lon="0.5357908644"><ele>2321.76</ele><time>2020-10-25T11:15:05Z</time></trkpt><trkpt lat="42.7546582092" lon="0.5358999129"><ele>2322.77</ele><time>2020-10-25T11:15:16Z</time></trkpt><trkpt lat="42.7547211573" lon="0.5359963048"><ele>2323.54</ele><time>2020-10-25T11:15:26Z</time></trkpt><trkpt lat="42.7548178844" lon="0.5360587500"><ele>2325.44</ele><time>2020-10-25T11:15:38Z</time></trkpt><trkpt lat="42.7549185511" lon="0.5361134000"><ele>2328.22</ele><time>2020-10-25T11:15:50Z</time></trkpt><trkpt lat="42.7550156973" lon="0.5361382104"><ele>2329.38</ele><time>2020-10-25T11:16:01Z</time></trkpt><trkpt lat="42.7551158611" lon="0.5361688882"><ele>2331.51</ele><time>2020-10-25T11:16:21Z</time></trkpt><trkpt lat="42.7552098222" lon="0.5362079479"><ele>2333.20</ele><time>2020-10-25T11:16:33Z</time></trkpt><trkpt lat="42.7552979998" lon="0.5362715665"><ele>2334.06</ele><time>2020-10-25T11:16:48Z</time></trkpt><trkpt lat="42.7553984988" lon="0.5363263004"><ele>2336.81</ele><time>2020-10-25T11:17:02Z</time></trkpt><trkpt lat="42.7554807253" lon="0.5364033300"><ele>2338.48</ele><time>2020-10-25T11:17:16Z</time></trkpt><trkpt lat="42.7555638738" lon="0.5364942737"><ele>2337.61</ele><time>2020-10-25T11:17:33Z</time></trkpt><trkpt lat="42.7556580864" lon="0.5365692917"><ele>2337.65</ele><time>2020-10-25T11:17:47Z</time></trkpt><trkpt lat="42.7557474375" lon="0.5366552062"><ele>2345.17</ele><time>2020-10-25T11:18:01Z</time></trkpt><trkpt lat="42.7558391355" lon="0.5367365107"><ele>2345.95</ele><time>2020-10-25T11:18:16Z</time></trkpt><trkpt lat="42.7559181768" lon="0.5368263647"><ele>2348.42</ele><time>2020-10-25T11:19:23Z</time></trkpt><trkpt lat="42.7559924405" lon="0.5369121954"><ele>2349.97</ele><time>2020-10-25T11:19:35Z</time></trkpt><trkpt lat="42.7560760081" lon="0.5369991157"><ele>2351.53</ele><time>2020-10-25T11:19:45Z</time></trkpt><trkpt lat="42.7561608329" lon="0.5370829348"><ele>2353.52</ele><time>2020-10-25T11:19:56Z</time></trkpt><trkpt lat="42.7562427241" lon="0.5371731240"><ele>2356.11</ele><time>2020-10-25T11:20:06Z</time></trkpt><trkpt lat="42.7563313209" lon="0.5372573622"><ele>2357.32</ele><time>2020-10-25T11:20:18Z</time></trkpt><trkpt lat="42.7564160619" lon="0.5373566877"><ele>2361.57</ele><time>2020-10-25T11:20:37Z</time></trkpt><trkpt lat="42.7564940136" lon="0.5374419317"><ele>2366.92</ele><time>2020-10-25T11:20:57Z</time></trkpt><trkpt lat="42.7565697860" lon="0.5375280138"><ele>2368.52</ele><time>2020-10-25T11:21:18Z</time></trkpt><trkpt lat="42.7566349134" lon="0.5376063846"><ele>2372.12</ele><time>2020-10-25T11:21:38Z</time></trkpt><trkpt lat="42.7567078359" lon="0.5376853421"><ele>2374.92</ele><time>2020-10-25T11:21:59Z</time></trkpt><trkpt lat="42.7567726281" lon="0.5377630424"><ele>2377.50</ele><time>2020-10-25T11:22:19Z</time></trkpt><trkpt lat="42.7568529267" lon="0.5378347915"><ele>2380.07</ele><time>2020-10-25T11:22:37Z</time></trkpt><trkpt lat="42.7568947524" lon="0.5379401520"><ele>2382.85</ele><time>2020-10-25T11:22:55Z</time></trkpt><trkpt lat="42.7569613047" lon="0.5380300060"><ele>2385.52</ele><time>2020-10-25T11:23:14Z</time></trkpt><trkpt lat="42.7570052259" lon="0.5381381325"><ele>2389.03</ele><time>2020-10-25T11:23:34Z</time></trkpt><trkpt lat="42.7570231631" lon="0.5382491089"><ele>2391.02</ele><time>2020-10-25T11:23:58Z</time></trkpt><trkpt lat="42.7570281085" lon="0.5383638572"><ele>2391.00</ele><time>2020-10-25T11:24:10Z</time></trkpt><trkpt lat="42.7570333052" lon="0.5383731611"><ele>2390.99</ele><time>2020-10-25T11:24:30Z</time></trkpt><trkpt lat="42.7570353169" lon="0.5384827126"><ele>2385.49</ele><time>2020-10-25T11:24:46Z</time></trkpt><trkpt lat="42.7570471354" lon="0.5385791883"><ele>2384.47</ele><time>2020-10-25T11:25:10Z</time></trkpt><trkpt lat="42.7570143621" lon="0.5384994764"><ele>2383.49</ele><time>2020-10-25T11:25:28Z</time></trkpt><trkpt lat="42.7570457943" lon="0.5384948663"><ele>2393.15</ele><time>2020-10-25T12:06:25Z</time></trkpt><trkpt lat="42.7570502367" lon="0.5385972094"><ele>2387.68</ele><time>2020-10-25T12:07:09Z</time></trkpt><trkpt lat="42.7570506558" lon="0.5384807847"><ele>2387.73</ele><time>2020-10-25T12:07:27Z</time></trkpt><trkpt lat="42.7570531704" lon="0.5383715685"><ele>2392.70</ele><time>2020-10-25T12:08:04Z</time></trkpt><trkpt lat="42.7570452075" lon="0.5382468458"><ele>2394.52</ele><time>2020-10-25T12:08:17Z</time></trkpt><trkpt lat="42.7570638992" lon="0.5381222907"><ele>2395.12</ele><time>2020-10-25T12:08:57Z</time></trkpt><trkpt lat="42.7570661623" lon="0.5381035991"><ele>2395.87</ele><time>2020-10-25T12:09:16Z</time></trkpt><trkpt lat="42.7570323832" lon="0.5381661281"><ele>2395.86</ele><time>2020-10-25T12:09:48Z</time></trkpt><trkpt lat="42.7570472192" lon="0.5381396413"><ele>2395.89</ele><time>2020-10-25T12:10:33Z</time></trkpt><trkpt lat="42.7570840996" lon="0.5380925350"><ele>2395.73</ele><time>2020-10-25T12:11:46Z</time></trkpt><trkpt lat="42.7571616322" lon="0.5380492844"><ele>2396.62</ele><time>2020-10-25T12:12:05Z</time></trkpt><trkpt lat="42.7572524920" lon="0.5380299222"><ele>2397.33</ele><time>2020-10-25T12:12:17Z</time></trkpt><trkpt lat="42.7573400829" lon="0.5380434170"><ele>2398.07</ele><time>2020-10-25T12:12:35Z</time></trkpt><trkpt lat="42.7574336249" lon="0.5380173493"><ele>2397.94</ele><time>2020-10-25T12:12:49Z</time></trkpt><trkpt lat="42.7575177792" lon="0.5379692372"><ele>2397.96</ele><time>2020-10-25T12:13:07Z</time></trkpt><trkpt lat="42.7575852536" lon="0.5378856696"><ele>2394.44</ele><time>2020-10-25T12:13:17Z</time></trkpt><trkpt lat="42.7576588467" lon="0.5378222186"><ele>2392.66</ele><time>2020-10-25T12:13:27Z</time></trkpt><trkpt lat="42.7577331942" lon="0.5377440993"><ele>2391.69</ele><time>2020-10-25T12:13:43Z</time></trkpt><trkpt lat="42.7577526402" lon="0.5376189575"><ele>2388.80</ele><time>2020-10-25T12:13:59Z</time></trkpt><trkpt lat="42.7577754389" lon="0.5374894571"><ele>2388.06</ele><time>2020-10-25T12:14:11Z</time></trkpt><trkpt lat="42.7578023449" lon="0.5373579450"><ele>2382.10</ele><time>2020-10-25T12:14:26Z</time></trkpt><trkpt lat="42.7578539774" lon="0.5372535065"><ele>2381.47</ele><time>2020-10-25T12:14:42Z</time></trkpt><trkpt lat="42.7579236310" lon="0.5371683463"><ele>2381.44</ele><time>2020-10-25T12:14:53Z</time></trkpt><trkpt lat="42.7579973079" lon="0.5371017102"><ele>2381.46</ele><time>2020-10-25T12:15:03Z</time></trkpt><trkpt lat="42.7580788638" lon="0.5370297935"><ele>2381.30</ele><time>2020-10-25T12:15:13Z</time></trkpt><trkpt lat="42.7581578214" lon="0.5369710363"><ele>2380.43</ele><time>2020-10-25T12:15:23Z</time></trkpt><trkpt lat="42.7582443226" lon="0.5369590502"><ele>2379.05</ele><time>2020-10-25T12:15:34Z</time></trkpt><trkpt lat="42.7583275549" lon="0.5370255187"><ele>2379.06</ele><time>2020-10-25T12:15:44Z</time></trkpt><trkpt lat="42.7584143914" lon="0.5370834377"><ele>2379.05</ele><time>2020-10-25T12:15:54Z</time></trkpt><trkpt lat="42.7584806923" lon="0.5371672567"><ele>2377.04</ele><time>2020-10-25T12:16:04Z</time></trkpt><trkpt lat="42.7585505135" lon="0.5372227449"><ele>2372.17</ele><time>2020-10-25T12:16:22Z</time></trkpt><trkpt lat="42.7586387750" lon="0.5372636486"><ele>2367.15</ele><time>2020-10-25T12:16:44Z</time></trkpt><trkpt lat="42.7587001305" lon="0.5371683463"><ele>2360.13</ele><time>2020-10-25T12:17:11Z</time></trkpt><trkpt lat="42.7587764896" lon="0.5371929053"><ele>2357.22</ele><time>2020-10-25T12:20:03Z</time></trkpt><trkpt lat="42.7588550281" lon="0.5371824279"><ele>2353.56</ele><time>2020-10-25T12:20:31Z</time></trkpt><trkpt lat="42.7589413617" lon="0.5372048914"><ele>2348.42</ele><time>2020-10-25T12:20:49Z</time></trkpt><trkpt lat="42.7590175532" lon="0.5371983536"><ele>2343.83</ele><time>2020-10-25T12:21:04Z</time></trkpt><trkpt lat="42.7591033839" lon="0.5372292828"><ele>2342.12</ele><time>2020-10-25T12:21:17Z</time></trkpt><trkpt lat="42.7592065651" lon="0.5372431967"><ele>2340.33</ele><time>2020-10-25T12:21:32Z</time></trkpt><trkpt lat="42.7593115065" lon="0.5372428615"><ele>2339.46</ele><time>2020-10-25T12:21:43Z</time></trkpt><trkpt lat="42.7594156936" lon="0.5372823402"><ele>2337.60</ele><time>2020-10-25T12:21:55Z</time></trkpt><trkpt lat="42.7595082298" lon="0.5373167899"><ele>2335.92</ele><time>2020-10-25T12:22:11Z</time></trkpt><trkpt lat="42.7596046217" lon="0.5373348948"><ele>2337.02</ele><time>2020-10-25T12:22:37Z</time></trkpt><trkpt lat="42.7596814837" lon="0.5372877885"><ele>2337.66</ele><time>2020-10-25T12:23:16Z</time></trkpt><trkpt lat="42.7597678173" lon="0.5372503214"><ele>2330.52</ele><time>2020-10-25T12:23:39Z</time></trkpt><trkpt lat="42.7598599344" lon="0.5372680910"><ele>2326.44</ele><time>2020-10-25T12:24:09Z</time></trkpt><trkpt lat="42.7599676419" lon="0.5372668337"><ele>2321.30</ele><time>2020-10-25T12:24:40Z</time></trkpt><trkpt lat="42.7600076236" lon="0.5372210685"><ele>2317.09</ele><time>2020-10-25T12:26:18Z</time></trkpt><trkpt lat="42.7600699849" lon="0.5372066516"><ele>2316.69</ele><time>2020-10-25T12:27:03Z</time></trkpt><trkpt lat="42.7601269819" lon="0.5372100044"><ele>2316.03</ele><time>2020-10-25T12:27:41Z</time></trkpt><trkpt lat="42.7601939533" lon="0.5371063203"><ele>2312.09</ele><time>2020-10-25T12:27:53Z</time></trkpt><trkpt lat="42.7602626849" lon="0.5371390097"><ele>2306.91</ele><time>2020-10-25T12:28:15Z</time></trkpt><trkpt lat="42.7603447437" lon="0.5371846911"><ele>2302.67</ele><time>2020-10-25T12:28:37Z</time></trkpt><trkpt lat="42.7604194265" lon="0.5372712761"><ele>2298.21</ele><time>2020-10-25T12:29:04Z</time></trkpt><trkpt lat="42.7604844701" lon="0.5372385867"><ele>2291.85</ele><time>2020-10-25T12:29:35Z</time></trkpt><trkpt lat="42.7605370246" lon="0.5371824279"><ele>2288.07</ele><time>2020-10-25T12:30:00Z</time></trkpt><trkpt lat="42.7606172394" lon="0.5371856969"><ele>2279.41</ele><time>2020-10-25T12:31:05Z</time></trkpt><trkpt lat="42.7606539521" lon="0.5371334776"><ele>2277.39</ele><time>2020-10-25T12:31:52Z</time></trkpt><trkpt lat="42.7607222646" lon="0.5371758901"><ele>2274.20</ele><time>2020-10-25T12:32:26Z</time></trkpt><trkpt lat="42.7607953548" lon="0.5372442026"><ele>2271.10</ele><time>2020-10-25T12:32:57Z</time></trkpt><trkpt lat="42.7608683612" lon="0.5373017024"><ele>2267.19</ele><time>2020-10-25T12:33:18Z</time></trkpt><trkpt lat="42.7609255258" lon="0.5373492278"><ele>2262.96</ele><time>2020-10-25T12:33:56Z</time></trkpt><trkpt lat="42.7609836124" lon="0.5374332983"><ele>2260.12</ele><time>2020-10-25T12:34:37Z</time></trkpt><trkpt lat="42.7610475663" lon="0.5375189614"><ele>2258.18</ele><time>2020-10-25T12:34:53Z</time></trkpt><trkpt lat="42.7611140348" lon="0.5376096535"><ele>2254.31</ele><time>2020-10-25T12:35:08Z</time></trkpt><trkpt lat="42.7611873765" lon="0.5376908742"><ele>2251.85</ele><time>2020-10-25T12:35:24Z</time></trkpt><trkpt lat="42.7612618916" lon="0.5377673171"><ele>2249.56</ele><time>2020-10-25T12:35:41Z</time></trkpt><trkpt lat="42.7613478899" lon="0.5378362164"><ele>2247.05</ele><time>2020-10-25T12:35:54Z</time></trkpt><trkpt lat="42.7614352293" lon="0.5379066244"><ele>2244.09</ele><time>2020-10-25T12:36:04Z</time></trkpt><trkpt lat="42.7615221497" lon="0.5379695725"><ele>2243.26</ele><time>2020-10-25T12:36:14Z</time></trkpt><trkpt lat="42.7616023645" lon="0.5380659644"><ele>2247.39</ele><time>2020-10-25T12:36:31Z</time></trkpt><trkpt lat="42.7616861835" lon="0.5381188542"><ele>2248.87</ele><time>2020-10-25T12:37:14Z</time></trkpt><trkpt lat="42.7617511433" lon="0.5382101331"><ele>2248.85</ele><time>2020-10-25T12:37:24Z</time></trkpt><trkpt lat="42.7618257422" lon="0.5382499471"><ele>2248.82</ele><time>2020-10-25T12:37:35Z</time></trkpt><trkpt lat="42.7619032748" lon="0.5382922757"><ele>2245.41</ele><time>2020-10-25T12:37:50Z</time></trkpt><trkpt lat="42.7619912848" lon="0.5382988136"><ele>2242.76</ele><time>2020-10-25T12:38:01Z</time></trkpt><trkpt lat="42.7620808035" lon="0.5383288208"><ele>2240.30</ele><time>2020-10-25T12:38:14Z</time></trkpt><trkpt lat="42.7621634491" lon="0.5383752566"><ele>2239.48</ele><time>2020-10-25T12:38:36Z</time></trkpt><trkpt lat="42.7622481063" lon="0.5384350196"><ele>2239.44</ele><time>2020-10-25T12:38:46Z</time></trkpt><trkpt lat="42.7623320930" lon="0.5384813715"><ele>2237.24</ele><time>2020-10-25T12:38:57Z</time></trkpt><trkpt lat="42.7624052670" lon="0.5385714769"><ele>2234.20</ele><time>2020-10-25T12:39:08Z</time></trkpt><trkpt lat="42.7624797821" lon="0.5386443995"><ele>2232.51</ele><time>2020-10-25T12:39:19Z</time></trkpt><trkpt lat="42.7625482623" lon="0.5387288053"><ele>2227.24</ele><time>2020-10-25T12:39:32Z</time></trkpt><trkpt lat="42.7626119647" lon="0.5388133787"><ele>2225.24</ele><time>2020-10-25T12:39:46Z</time></trkpt><trkpt lat="42.7626929339" lon="0.5388784222"><ele>2221.11</ele><time>2020-10-25T12:39:56Z</time></trkpt><trkpt lat="42.7627785970" lon="0.5389643367"><ele>2220.60</ele><time>2020-10-25T12:44:47Z</time></trkpt><trkpt lat="42.7628581412" lon="0.5390299670"><ele>2219.51</ele><time>2020-10-25T12:45:00Z</time></trkpt><trkpt lat="42.7629458159" lon="0.5390596390"><ele>2219.94</ele><time>2020-10-25T12:45:12Z</time></trkpt><trkpt lat="42.7630267013" lon="0.5391212460"><ele>2219.87</ele><time>2020-10-25T12:45:24Z</time></trkpt><trkpt lat="42.7631018870" lon="0.5392011255"><ele>2219.87</ele><time>2020-10-25T12:45:36Z</time></trkpt><trkpt lat="42.7631898969" lon="0.5392487347"><ele>2219.87</ele><time>2020-10-25T12:45:49Z</time></trkpt><trkpt lat="42.7632758114" lon="0.5392953381"><ele>2221.62</ele><time>2020-10-25T12:46:02Z</time></trkpt><trkpt lat="42.7633701079" lon="0.5393460486"><ele>2224.05</ele><time>2020-10-25T12:46:16Z</time></trkpt><trkpt lat="42.7634343971" lon="0.5394056439"><ele>2226.44</ele><time>2020-10-25T12:46:36Z</time></trkpt><trkpt lat="42.7635222394" lon="0.5394297000"><ele>2232.09</ele><time>2020-10-25T12:46:52Z</time></trkpt><trkpt lat="42.7636175416" lon="0.5394429434"><ele>2231.98</ele><time>2020-10-25T12:47:04Z</time></trkpt><trkpt lat="42.7637008578" lon="0.5394981802"><ele>2231.81</ele><time>2020-10-25T12:47:15Z</time></trkpt><trkpt lat="42.7637607884" lon="0.5395899620"><ele>2231.66</ele><time>2020-10-25T12:47:26Z</time></trkpt><trkpt lat="42.7638415061" lon="0.5396404210"><ele>2227.39</ele><time>2020-10-25T12:47:38Z</time></trkpt><trkpt lat="42.7639261633" lon="0.5396994296"><ele>2226.69</ele><time>2020-10-25T12:47:50Z</time></trkpt><trkpt lat="42.7640197054" lon="0.5397333764"><ele>2225.85</ele><time>2020-10-25T12:48:02Z</time></trkpt><trkpt lat="42.7641090564" lon="0.5397351366"><ele>2225.19</ele><time>2020-10-25T12:48:14Z</time></trkpt><trkpt lat="42.7641904447" lon="0.5397788063"><ele>2221.78</ele><time>2020-10-25T12:48:25Z</time></trkpt><trkpt lat="42.7642775327" lon="0.5398276728"><ele>2217.35</ele><time>2020-10-25T12:48:39Z</time></trkpt><trkpt lat="42.7643553168" lon="0.5398651399"><ele>2215.12</ele><time>2020-10-25T12:48:58Z</time></trkpt><trkpt lat="42.7644172590" lon="0.5398859270"><ele>2211.74</ele><time>2020-10-25T12:50:18Z</time></trkpt><trkpt lat="42.7645060234" lon="0.5399227235"><ele>2210.40</ele><time>2020-10-25T12:50:33Z</time></trkpt><trkpt lat="42.7645885851" lon="0.5399633758"><ele>2208.24</ele><time>2020-10-25T12:50:46Z</time></trkpt><trkpt lat="42.7646686323" lon="0.5399619509"><ele>2202.81</ele><time>2020-10-25T12:51:10Z</time></trkpt><trkpt lat="42.7647573128" lon="0.5399706680"><ele>2197.17</ele><time>2020-10-25T12:51:26Z</time></trkpt><trkpt lat="42.7648195904" lon="0.5399826542"><ele>2192.58</ele><time>2020-10-25T12:51:41Z</time></trkpt><trkpt lat="42.7648909204" lon="0.5400215462"><ele>2188.69</ele><time>2020-10-25T12:51:56Z</time></trkpt><trkpt lat="42.7649360150" lon="0.5400621146"><ele>2184.91</ele><time>2020-10-25T12:52:11Z</time></trkpt><trkpt lat="42.7650058363" lon="0.5401039403"><ele>2181.11</ele><time>2020-10-25T12:52:24Z</time></trkpt><trkpt lat="42.7650857996" lon="0.5401159264"><ele>2177.40</ele><time>2020-10-25T12:52:43Z</time></trkpt><trkpt lat="42.7651711274" lon="0.5400786269"><ele>2172.54</ele><time>2020-10-25T12:52:57Z</time></trkpt><trkpt lat="42.7652560361" lon="0.5400802195"><ele>2170.54</ele><time>2020-10-25T12:53:10Z</time></trkpt><trkpt lat="42.7653380949" lon="0.5401293375"><ele>2166.11</ele><time>2020-10-25T12:53:25Z</time></trkpt><trkpt lat="42.7654299606" lon="0.5401778687"><ele>2162.07</ele><time>2020-10-25T12:53:36Z</time></trkpt><trkpt lat="42.7655229997" lon="0.5402181018"><ele>2161.28</ele><time>2020-10-25T12:53:46Z</time></trkpt><trkpt lat="42.7655963413" lon="0.5402414035"><ele>2160.23</ele><time>2020-10-25T12:55:14Z</time></trkpt><trkpt lat="42.7656655759" lon="0.5401737615"><ele>2156.00</ele><time>2020-10-25T12:55:27Z</time></trkpt><trkpt lat="42.7657327149" lon="0.5401646253"><ele>2153.26</ele><time>2020-10-25T12:56:05Z</time></trkpt><trkpt lat="42.7658218145" lon="0.5401488673"><ele>2149.20</ele><time>2020-10-25T12:56:16Z</time></trkpt><trkpt lat="42.7659258340" lon="0.5401680619"><ele>2147.28</ele><time>2020-10-25T12:56:27Z</time></trkpt><trkpt lat="42.7660160232" lon="0.5402133241"><ele>2144.39</ele><time>2020-10-25T12:56:36Z</time></trkpt><trkpt lat="42.7661068831" lon="0.5402420741"><ele>2143.49</ele><time>2020-10-25T12:56:45Z</time></trkpt><trkpt lat="42.7661986649" lon="0.5402765237"><ele>2143.54</ele><time>2020-10-25T12:56:57Z</time></trkpt><trkpt lat="42.7662543207" lon="0.5402513780"><ele>2142.66</ele><time>2020-10-25T12:57:58Z</time></trkpt><trkpt lat="42.7663174365" lon="0.5402087979"><ele>2138.06</ele><time>2020-10-25T12:58:29Z</time></trkpt><trkpt lat="42.7663971484" lon="0.5402145814"><ele>2132.83</ele><time>2020-10-25T12:58:50Z</time></trkpt><trkpt lat="42.7664784528" lon="0.5402606819"><ele>2128.46</ele><time>2020-10-25T12:59:07Z</time></trkpt><trkpt lat="42.7665691450" lon="0.5402875040"><ele>2125.65</ele><time>2020-10-25T12:59:20Z</time></trkpt><trkpt lat="42.7666714042" lon="0.5402628612"><ele>2123.99</ele><time>2020-10-25T12:59:31Z</time></trkpt><trkpt lat="42.7667610906" lon="0.5402248073"><ele>2124.04</ele><time>2020-10-25T12:59:41Z</time></trkpt><trkpt lat="42.7668499388" lon="0.5402603466"><ele>2123.24</ele><time>2020-10-25T12:59:52Z</time></trkpt><trkpt lat="42.7669321653" lon="0.5403160024"><ele>2122.34</ele><time>2020-10-25T13:00:03Z</time></trkpt><trkpt lat="42.7670231089" lon="0.5403833091"><ele>2121.28</ele><time>2020-10-25T13:00:18Z</time></trkpt><trkpt lat="42.7671004739" lon="0.5404688045"><ele>2119.59</ele><time>2020-10-25T13:00:31Z</time></trkpt><trkpt lat="42.7671693731" lon="0.5405719858"><ele>2117.06</ele><time>2020-10-25T13:00:45Z</time></trkpt><trkpt lat="42.7672516834" lon="0.5406571459"><ele>2114.38</ele><time>2020-10-25T13:00:57Z</time></trkpt><trkpt lat="42.7673225105" lon="0.5407408811"><ele>2111.01</ele><time>2020-10-25T13:01:09Z</time></trkpt><trkpt lat="42.7673815191" lon="0.5408456549"><ele>2108.33</ele><time>2020-10-25T13:01:23Z</time></trkpt><trkpt lat="42.7674517594" lon="0.5409460701"><ele>2104.39</ele><time>2020-10-25T13:01:38Z</time></trkpt><trkpt lat="42.7675407752" lon="0.5409937631"><ele>2101.25</ele><time>2020-10-25T13:01:51Z</time></trkpt><trkpt lat="42.7676055674" lon="0.5410912447"><ele>2097.70</ele><time>2020-10-25T13:02:04Z</time></trkpt><trkpt lat="42.7676416934" lon="0.5412181467"><ele>2096.92</ele><time>2020-10-25T13:02:16Z</time></trkpt><trkpt lat="42.7677058987" lon="0.5413077492"><ele>2095.29</ele><time>2020-10-25T13:02:28Z</time></trkpt><trkpt lat="42.7677791566" lon="0.5413868744"><ele>2093.39</ele><time>2020-10-25T13:02:38Z</time></trkpt><trkpt lat="42.7678693458" lon="0.5414306279"><ele>2089.80</ele><time>2020-10-25T13:02:49Z</time></trkpt><trkpt lat="42.7679607924" lon="0.5414670054"><ele>2087.16</ele><time>2020-10-25T13:03:23Z</time></trkpt><trkpt lat="42.7680505626" lon="0.5414219107"><ele>2086.15</ele><time>2020-10-25T13:03:45Z</time></trkpt><trkpt lat="42.7681170311" lon="0.5413635727"><ele>2081.51</ele><time>2020-10-25T13:04:21Z</time></trkpt><trkpt lat="42.7681835834" lon="0.5412993673"><ele>2078.54</ele><time>2020-10-25T13:04:35Z</time></trkpt><trkpt lat="42.7682643849" lon="0.5412363354"><ele>2074.41</ele><time>2020-10-25T13:04:49Z</time></trkpt><trkpt lat="42.7683633752" lon="0.5412263609"><ele>2070.21</ele><time>2020-10-25T13:05:09Z</time></trkpt><trkpt lat="42.7684556600" lon="0.5412479863"><ele>2067.14</ele><time>2020-10-25T13:05:24Z</time></trkpt><trkpt lat="42.7685416583" lon="0.5412121955"><ele>2061.82</ele><time>2020-10-25T13:05:41Z</time></trkpt><trkpt lat="42.7686013374" lon="0.5411280412"><ele>2057.13</ele><time>2020-10-25T13:05:58Z</time></trkpt><trkpt lat="42.7686682250" lon="0.5410342477"><ele>2053.35</ele><time>2020-10-25T13:06:12Z</time></trkpt><trkpt lat="42.7687233780" lon="0.5409438908"><ele>2049.08</ele><time>2020-10-25T13:06:28Z</time></trkpt><trkpt lat="42.7688022517" lon="0.5409630854"><ele>2044.31</ele><time>2020-10-25T13:06:47Z</time></trkpt><trkpt lat="42.7688801195" lon="0.5410254467"><ele>2040.58</ele><time>2020-10-25T13:07:05Z</time></trkpt><trkpt lat="42.7689541318" lon="0.5410846230"><ele>2035.89</ele><time>2020-10-25T13:07:26Z</time></trkpt><trkpt lat="42.7690308262" lon="0.5410148855"><ele>2031.27</ele><time>2020-10-25T13:07:43Z</time></trkpt><trkpt lat="42.7691049222" lon="0.5409487523"><ele>2026.78</ele><time>2020-10-25T13:08:03Z</time></trkpt><trkpt lat="42.7691822033" lon="0.5408643465"><ele>2021.17</ele><time>2020-10-25T13:08:20Z</time></trkpt><trkpt lat="42.7692533657" lon="0.5408361834"><ele>2017.34</ele><time>2020-10-25T13:08:36Z</time></trkpt><trkpt lat="42.7693329100" lon="0.5409068428"><ele>2013.78</ele><time>2020-10-25T13:08:51Z</time></trkpt><trkpt lat="42.7694297209" lon="0.5409795977"><ele>2011.33</ele><time>2020-10-25T13:09:05Z</time></trkpt><trkpt lat="42.7695245203" lon="0.5410437193"><ele>2008.80</ele><time>2020-10-25T13:09:17Z</time></trkpt><trkpt lat="42.7696181461" lon="0.5410633329"><ele>2001.07</ele><time>2020-10-25T13:12:04Z</time></trkpt><trkpt lat="42.7696904819" lon="0.5410815217"><ele>1999.25</ele><time>2020-10-25T13:12:24Z</time></trkpt><trkpt lat="42.7697668411" lon="0.5410717148"><ele>1995.23</ele><time>2020-10-25T13:12:40Z</time></trkpt><trkpt lat="42.7698503248" lon="0.5411235150"><ele>1991.52</ele><time>2020-10-25T13:12:55Z</time></trkpt><trkpt lat="42.7699444536" lon="0.5411470681"><ele>1987.15</ele><time>2020-10-25T13:13:11Z</time></trkpt><trkpt lat="42.7700309549" lon="0.5412188172"><ele>1984.07</ele><time>2020-10-25T13:13:24Z</time></trkpt><trkpt lat="42.7701235749" lon="0.5412657559"><ele>1981.37</ele><time>2020-10-25T13:13:40Z</time></trkpt><trkpt lat="42.7702135965" lon="0.5413046479"><ele>1977.80</ele><time>2020-10-25T13:13:56Z</time></trkpt><trkpt lat="42.7703066356" lon="0.5413269438"><ele>1973.99</ele><time>2020-10-25T13:14:10Z</time></trkpt><trkpt lat="42.7703978308" lon="0.5412744731"><ele>1969.47</ele><time>2020-10-25T13:14:28Z</time></trkpt><trkpt lat="42.7704762854" lon="0.5412538536"><ele>1965.26</ele><time>2020-10-25T13:14:44Z</time></trkpt><trkpt lat="42.7705543209" lon="0.5412957631"><ele>1959.69</ele><time>2020-10-25T13:15:05Z</time></trkpt><trkpt lat="42.7706317697" lon="0.5412712041"><ele>1955.77</ele><time>2020-10-25T13:15:23Z</time></trkpt><trkpt lat="42.7706660517" lon="0.5411616527"><ele>1951.74</ele><time>2020-10-25T13:15:41Z</time></trkpt><trkpt lat="42.7707488649" lon="0.5411137920"><ele>1948.04</ele><time>2020-10-25T13:15:55Z</time></trkpt><trkpt lat="42.7708302531" lon="0.5411036499"><ele>1944.44</ele><time>2020-10-25T13:16:13Z</time></trkpt><trkpt lat="42.7709130663" lon="0.5410696194"><ele>1940.38</ele><time>2020-10-25T13:16:30Z</time></trkpt><trkpt lat="42.7710032556" lon="0.5410732236"><ele>1934.66</ele><time>2020-10-25T13:16:49Z</time></trkpt><trkpt lat="42.7710905112" lon="0.5411442183"><ele>1931.01</ele><time>2020-10-25T13:17:01Z</time></trkpt><trkpt lat="42.7711821254" lon="0.5411891453"><ele>1928.97</ele><time>2020-10-25T13:17:11Z</time></trkpt><trkpt lat="42.7712588198" lon="0.5412829388"><ele>1927.45</ele><time>2020-10-25T13:17:22Z</time></trkpt><trkpt lat="42.7713371906" lon="0.5413608067"><ele>1926.79</ele><time>2020-10-25T13:17:31Z</time></trkpt><trkpt lat="42.7714187466" lon="0.5414493196"><ele>1925.82</ele><time>2020-10-25T13:17:41Z</time></trkpt><trkpt lat="42.7715012245" lon="0.5415181350"><ele>1925.81</ele><time>2020-10-25T13:17:51Z</time></trkpt><trkpt lat="42.7715827804" lon="0.5415761378"><ele>1924.79</ele><time>2020-10-25T13:18:02Z</time></trkpt><trkpt lat="42.7716768254" lon="0.5416313745"><ele>1924.75</ele><time>2020-10-25T13:18:13Z</time></trkpt><trkpt lat="42.7717688587" lon="0.5416762177"><ele>1923.77</ele><time>2020-10-25T13:18:24Z</time></trkpt><trkpt lat="42.7718577906" lon="0.5417354777"><ele>1921.52</ele><time>2020-10-25T13:18:36Z</time></trkpt><trkpt lat="42.7719243430" lon="0.5418225657"><ele>1919.83</ele><time>2020-10-25T13:18:48Z</time></trkpt><trkpt lat="42.7720077429" lon="0.5418793112"><ele>1917.04</ele><time>2020-10-25T13:19:01Z</time></trkpt><trkpt lat="42.7720906399" lon="0.5419709254"><ele>1915.23</ele><time>2020-10-25T13:19:13Z</time></trkpt><trkpt lat="42.7721741237" lon="0.5420446023"><ele>1913.62</ele><time>2020-10-25T13:19:27Z</time></trkpt><trkpt lat="42.7722652350" lon="0.5421235599"><ele>1910.67</ele><time>2020-10-25T13:19:41Z</time></trkpt><trkpt lat="42.7723425161" lon="0.5422132462"><ele>1909.84</ele><time>2020-10-25T13:19:55Z</time></trkpt><trkpt lat="42.7724193782" lon="0.5423069559"><ele>1908.37</ele><time>2020-10-25T13:20:08Z</time></trkpt><trkpt lat="42.7725148480" lon="0.5423770286"><ele>1905.80</ele><time>2020-10-25T13:20:20Z</time></trkpt><trkpt lat="42.7726109046" lon="0.5424196087"><ele>1904.96</ele><time>2020-10-25T13:20:29Z</time></trkpt><trkpt lat="42.7727077156" lon="0.5424724985"><ele>1902.18</ele><time>2020-10-25T13:20:39Z</time></trkpt><trkpt lat="42.7728045266" lon="0.5425034277"><ele>1900.50</ele><time>2020-10-25T13:20:50Z</time></trkpt><trkpt lat="42.7729111444" lon="0.5425165035"><ele>1898.81</ele><time>2020-10-25T13:21:00Z</time></trkpt><trkpt lat="42.7730096318" lon="0.5425058585"><ele>1895.96</ele><time>2020-10-25T13:21:10Z</time></trkpt><trkpt lat="42.7731144056" lon="0.5424846523"><ele>1893.02</ele><time>2020-10-25T13:21:20Z</time></trkpt><trkpt lat="42.7732080314" lon="0.5424529687"><ele>1891.27</ele><time>2020-10-25T13:21:29Z</time></trkpt><trkpt lat="42.7733071055" lon="0.5424397253"><ele>1889.60</ele><time>2020-10-25T13:21:38Z</time></trkpt><trkpt lat="42.7734063473" lon="0.5424351152"><ele>1888.76</ele><time>2020-10-25T13:21:47Z</time></trkpt><trkpt lat="42.7735132165" lon="0.5424191896"><ele>1888.01</ele><time>2020-10-25T13:21:56Z</time></trkpt><trkpt lat="42.7736080159" lon="0.5423972290"><ele>1887.18</ele><time>2020-10-25T13:22:05Z</time></trkpt><trkpt lat="42.7737125382" lon="0.5423646234"><ele>1886.28</ele><time>2020-10-25T13:22:15Z</time></trkpt><trkpt lat="42.7738081757" lon="0.5423311796"><ele>1885.35</ele><time>2020-10-25T13:22:24Z</time></trkpt><trkpt lat="42.7739035618" lon="0.5423634499"><ele>1885.32</ele><time>2020-10-25T13:22:33Z</time></trkpt><trkpt lat="42.7739935834" lon="0.5423713289"><ele>1885.35</ele><time>2020-10-25T13:22:42Z</time></trkpt><trkpt lat="42.7740753070" lon="0.5423340295"><ele>1885.34</ele><time>2020-10-25T13:22:51Z</time></trkpt><trkpt lat="42.7741716150" lon="0.5423111469"><ele>1885.31</ele><time>2020-10-25T13:23:01Z</time></trkpt><trkpt lat="42.7742667496" lon="0.5422952212"><ele>1885.29</ele><time>2020-10-25T13:23:11Z</time></trkpt><trkpt lat="42.7743662428" lon="0.5422907788"><ele>1887.68</ele><time>2020-10-25T13:23:22Z</time></trkpt><trkpt lat="42.7744659875" lon="0.5423122365"><ele>1887.66</ele><time>2020-10-25T13:23:33Z</time></trkpt><trkpt lat="42.7745544165" lon="0.5423322693"><ele>1886.63</ele><time>2020-10-25T13:23:44Z</time></trkpt><trkpt lat="42.7746512275" lon="0.5423370469"><ele>1886.55</ele><time>2020-10-25T13:23:54Z</time></trkpt><trkpt lat="42.7747394890" lon="0.5423329398"><ele>1884.29</ele><time>2020-10-25T13:24:03Z</time></trkpt><trkpt lat="42.7748269122" lon="0.5423082132"><ele>1884.36</ele><time>2020-10-25T13:24:15Z</time></trkpt><trkpt lat="42.7749204542" lon="0.5422767811"><ele>1884.28</ele><time>2020-10-25T13:24:25Z</time></trkpt><trkpt lat="42.7750144992" lon="0.5422291718"><ele>1883.40</ele><time>2020-10-25T13:24:35Z</time></trkpt><trkpt lat="42.7750963904" lon="0.5421690736"><ele>1881.68</ele><time>2020-10-25T13:24:45Z</time></trkpt><trkpt lat="42.7751803771" lon="0.5421226379"><ele>1879.98</ele><time>2020-10-25T13:24:55Z</time></trkpt><trkpt lat="42.7752705663" lon="0.5420764536"><ele>1879.12</ele><time>2020-10-25T13:25:04Z</time></trkpt><trkpt lat="42.7753584925" lon="0.5420238990"><ele>1878.27</ele><time>2020-10-25T13:25:13Z</time></trkpt><trkpt lat="42.7754430659" lon="0.5419801455"><ele>1876.54</ele><time>2020-10-25T13:25:23Z</time></trkpt><trkpt lat="42.7755304053" lon="0.5419158563"><ele>1876.55</ele><time>2020-10-25T13:25:33Z</time></trkpt><trkpt lat="42.7756254561" lon="0.5418582726"><ele>1876.49</ele><time>2020-10-25T13:25:44Z</time></trkpt><trkpt lat="42.7757144719" lon="0.5418062210"><ele>1876.51</ele><time>2020-10-25T13:25:55Z</time></trkpt><trkpt lat="42.7758117020" lon="0.5417628866"><ele>1875.60</ele><time>2020-10-25T13:26:06Z</time></trkpt><trkpt lat="42.7759120334" lon="0.5417343881"><ele>1874.45</ele><time>2020-10-25T13:26:16Z</time></trkpt><trkpt lat="42.7760066651" lon="0.5416945741"><ele>1870.90</ele><time>2020-10-25T13:26:27Z</time></trkpt><trkpt lat="42.7760918252" lon="0.5416458752"><ele>1868.05</ele><time>2020-10-25T13:26:39Z</time></trkpt><trkpt lat="42.7761900611" lon="0.5416408461"><ele>1864.33</ele><time>2020-10-25T13:26:53Z</time></trkpt><trkpt lat="42.7763007022" lon="0.5416259263"><ele>1861.92</ele><time>2020-10-25T13:27:06Z</time></trkpt><trkpt lat="42.7764062304" lon="0.5416280217"><ele>1860.24</ele><time>2020-10-25T13:27:16Z</time></trkpt><trkpt lat="42.7765081543" lon="0.5416203942"><ele>1859.37</ele><time>2020-10-25T13:27:26Z</time></trkpt><trkpt lat="42.7766010258" lon="0.5415870342"><ele>1859.40</ele><time>2020-10-25T13:27:36Z</time></trkpt><trkpt lat="42.7766861022" lon="0.5415354017"><ele>1859.40</ele><time>2020-10-25T13:27:48Z</time></trkpt><trkpt lat="42.7767757885" lon="0.5414965097"><ele>1862.62</ele><time>2020-10-25T13:28:01Z</time></trkpt><trkpt lat="42.7768562548" lon="0.5414486490"><ele>1864.08</ele><time>2020-10-25T13:28:14Z</time></trkpt><trkpt lat="42.7769345418" lon="0.5413937476"><ele>1864.84</ele><time>2020-10-25T13:28:29Z</time></trkpt><trkpt lat="42.7770140860" lon="0.5413398519"><ele>1867.42</ele><time>2020-10-25T13:28:45Z</time></trkpt><trkpt lat="42.7770979051" lon="0.5413069110"><ele>1869.00</ele><time>2020-10-25T13:29:00Z</time></trkpt><trkpt lat="42.7771982364" lon="0.5412871297"><ele>1868.88</ele><time>2020-10-25T13:29:12Z</time></trkpt><trkpt lat="42.7772942092" lon="0.5412556976"><ele>1864.98</ele><time>2020-10-25T13:29:23Z</time></trkpt><trkpt lat="42.7773721609" lon="0.5412497465"><ele>1863.27</ele><time>2020-10-25T13:33:25Z</time></trkpt><trkpt lat="42.7774662897" lon="0.5412570387"><ele>1860.36</ele><time>2020-10-25T13:33:37Z</time></trkpt><trkpt lat="42.7775576524" lon="0.5412567034"><ele>1857.35</ele><time>2020-10-25T13:33:47Z</time></trkpt><trkpt lat="42.7776479255" lon="0.5412436277"><ele>1852.54</ele><time>2020-10-25T13:33:58Z</time></trkpt><trkpt lat="42.7777370252" lon="0.5412241817"><ele>1849.72</ele><time>2020-10-25T13:34:09Z</time></trkpt><trkpt lat="42.7778227720" lon="0.5411973596"><ele>1846.04</ele><time>2020-10-25T13:34:18Z</time></trkpt><trkpt lat="42.7779210079" lon="0.5411984492"><ele>1844.16</ele><time>2020-10-25T13:34:27Z</time></trkpt><trkpt lat="42.7780117840" lon="0.5411919951"><ele>1841.57</ele><time>2020-10-25T13:34:36Z</time></trkpt><trkpt lat="42.7781127021" lon="0.5411724653"><ele>1837.94</ele><time>2020-10-25T13:34:46Z</time></trkpt><trkpt lat="42.7782095131" lon="0.5411377642"><ele>1835.89</ele><time>2020-10-25T13:34:56Z</time></trkpt><trkpt lat="42.7782905661" lon="0.5410802644"><ele>1832.60</ele><time>2020-10-25T13:35:06Z</time></trkpt><trkpt lat="42.7783664223" lon="0.5410643388"><ele>1829.84</ele><time>2020-10-25T13:35:18Z</time></trkpt><trkpt lat="42.7784654964" lon="0.5410609022"><ele>1824.92</ele><time>2020-10-25T13:35:31Z</time></trkpt><trkpt lat="42.7785616368" lon="0.5410673562"><ele>1821.85</ele><time>2020-10-25T13:35:41Z</time></trkpt><trkpt lat="42.7786561009" lon="0.5410493352"><ele>1819.30</ele><time>2020-10-25T13:35:48Z</time></trkpt><trkpt lat="42.7787571866" lon="0.5410124548"><ele>1817.46</ele><time>2020-10-25T13:35:57Z</time></trkpt><trkpt lat="42.7788543329" lon="0.5409676116"><ele>1817.45</ele><time>2020-10-25T13:36:06Z</time></trkpt><trkpt lat="42.7789499704" lon="0.5409376044"><ele>1815.65</ele><time>2020-10-25T13:36:14Z</time></trkpt><trkpt lat="42.7790415008" lon="0.5409013946"><ele>1814.80</ele><time>2020-10-25T13:36:23Z</time></trkpt><trkpt lat="42.7791354619" lon="0.5409084354"><ele>1817.16</ele><time>2020-10-25T13:36:35Z</time></trkpt><trkpt lat="42.7792274114" lon="0.5408484209"><ele>1818.60</ele><time>2020-10-25T13:36:48Z</time></trkpt><trkpt lat="42.7793294191" lon="0.5408189166"><ele>1820.16</ele><time>2020-10-25T13:36:58Z</time></trkpt><trkpt lat="42.7794234641" lon="0.5407995544"><ele>1820.91</ele><time>2020-10-25T13:37:07Z</time></trkpt><trkpt lat="42.7795192692" lon="0.5407975428"><ele>1820.81</ele><time>2020-10-25T13:37:16Z</time></trkpt><trkpt lat="42.7796185948" lon="0.5407998059"><ele>1818.41</ele><time>2020-10-25T13:37:25Z</time></trkpt><trkpt lat="42.7797028329" lon="0.5407793541"><ele>1815.82</ele><time>2020-10-25T13:37:34Z</time></trkpt><trkpt lat="42.7797936089" lon="0.5407504365"><ele>1812.86</ele><time>2020-10-25T13:37:45Z</time></trkpt><trkpt lat="42.7798932698" lon="0.5407633446"><ele>1811.09</ele><time>2020-10-25T13:37:54Z</time></trkpt><trkpt lat="42.7799877338" lon="0.5407656915"><ele>1811.08</ele><time>2020-10-25T13:38:03Z</time></trkpt><trkpt lat="42.7800503466" lon="0.5407498498"><ele>1812.66</ele><time>2020-10-25T13:41:04Z</time></trkpt><trkpt lat="42.7801419608" lon="0.5407339241"><ele>1813.41</ele><time>2020-10-25T13:41:14Z</time></trkpt><trkpt lat="42.7802277915" lon="0.5406930204"><ele>1815.82</ele><time>2020-10-25T13:41:23Z</time></trkpt><trkpt lat="42.7803194057" lon="0.5406834651"><ele>1815.73</ele><time>2020-10-25T13:41:32Z</time></trkpt><trkpt lat="42.7804150432" lon="0.5406778492"><ele>1811.98</ele><time>2020-10-25T13:41:42Z</time></trkpt><trkpt lat="42.7805108484" lon="0.5407142267"><ele>1808.82</ele><time>2020-10-25T13:41:52Z</time></trkpt><trkpt lat="42.7805908117" lon="0.5407847185"><ele>1804.40</ele><time>2020-10-25T13:42:02Z</time></trkpt><trkpt lat="42.7806787379" lon="0.5407842994"><ele>1801.65</ele><time>2020-10-25T13:42:15Z</time></trkpt><trkpt lat="42.7807713579" lon="0.5408165697"><ele>1798.64</ele><time>2020-10-25T13:42:27Z</time></trkpt><trkpt lat="42.7808514889" lon="0.5408386141"><ele>1794.98</ele><time>2020-10-25T13:42:38Z</time></trkpt><trkpt lat="42.7809261717" lon="0.5408195034"><ele>1791.00</ele><time>2020-10-25T13:42:49Z</time></trkpt><trkpt lat="42.7809922211" lon="0.5409143027"><ele>1787.35</ele><time>2020-10-25T13:42:59Z</time></trkpt><trkpt lat="42.7810308617" lon="0.5410329904"><ele>1785.48</ele><time>2020-10-25T13:43:10Z</time></trkpt><trkpt lat="42.7810751181" lon="0.5411457270"><ele>1780.85</ele><time>2020-10-25T13:43:22Z</time></trkpt><trkpt lat="42.7811394911" lon="0.5411806796"><ele>1775.89</ele><time>2020-10-25T13:43:36Z</time></trkpt><trkpt lat="42.7812263276" lon="0.5411510915"><ele>1770.80</ele><time>2020-10-25T13:43:51Z</time></trkpt><trkpt lat="42.7813254017" lon="0.5411115289"><ele>1766.79</ele><time>2020-10-25T13:44:04Z</time></trkpt><trkpt lat="42.7814241406" lon="0.5411302205"><ele>1762.53</ele><time>2020-10-25T13:44:16Z</time></trkpt><trkpt lat="42.7815130726" lon="0.5411836132"><ele>1759.04</ele><time>2020-10-25T13:44:27Z</time></trkpt><trkpt lat="42.7815945446" lon="0.5411831941"><ele>1755.87</ele><time>2020-10-25T13:44:37Z</time></trkpt><trkpt lat="42.7816869970" lon="0.5412375089"><ele>1752.13</ele><time>2020-10-25T13:44:47Z</time></trkpt><trkpt lat="42.7817833889" lon="0.5411631614"><ele>1750.35</ele><time>2020-10-25T13:45:38Z</time></trkpt><trkpt lat="42.7818694711" lon="0.5411328189"><ele>1748.51</ele><time>2020-10-25T13:45:53Z</time></trkpt><trkpt lat="42.7819482610" lon="0.5410795938"><ele>1746.30</ele><time>2020-10-25T13:46:07Z</time></trkpt><trkpt lat="42.7820192557" lon="0.5409883149"><ele>1743.66</ele><time>2020-10-25T13:46:16Z</time></trkpt><trkpt lat="42.7820933517" lon="0.5409037415"><ele>1740.93</ele><time>2020-10-25T13:46:25Z</time></trkpt><trkpt lat="42.7821663581" lon="0.5408189166"><ele>1739.12</ele><time>2020-10-25T13:46:34Z</time></trkpt><trkpt lat="42.7822429687" lon="0.5407375284"><ele>1736.30</ele><time>2020-10-25T13:46:43Z</time></trkpt><trkpt lat="42.7822824474" lon="0.5406230316"><ele>1734.50</ele><time>2020-10-25T13:46:52Z</time></trkpt><trkpt lat="42.7823155560" lon="0.5405082833"><ele>1731.01</ele><time>2020-10-25T13:47:13Z</time></trkpt><trkpt lat="42.7823743969" lon="0.5404072814"><ele>1728.16</ele><time>2020-10-25T13:47:29Z</time></trkpt><trkpt lat="42.7824308071" lon="0.5403134041"><ele>1725.56</ele><time>2020-10-25T13:47:41Z</time></trkpt><trkpt lat="42.7824905701" lon="0.5402186047"><ele>1721.64</ele><time>2020-10-25T13:47:52Z</time></trkpt><trkpt lat="42.7825594693" lon="0.5401259847"><ele>1718.43</ele><time>2020-10-25T13:48:03Z</time></trkpt><trkpt lat="42.7826168854" lon="0.5400248989"><ele>1715.64</ele><time>2020-10-25T13:48:15Z</time></trkpt><trkpt lat="42.7826874610" lon="0.5399380624"><ele>1713.59</ele><time>2020-10-25T13:48:26Z</time></trkpt><trkpt lat="42.7827165462" lon="0.5398250744"><ele>1709.72</ele><time>2020-10-25T13:48:37Z</time></trkpt><trkpt lat="42.7827118523" lon="0.5397059675"><ele>1706.38</ele><time>2020-10-25T13:48:50Z</time></trkpt><trkpt lat="42.7827303763" lon="0.5395870283"><ele>1701.98</ele><time>2020-10-25T13:49:03Z</time></trkpt><trkpt lat="42.7827801649" lon="0.5394840986"><ele>1698.00</ele><time>2020-10-25T13:49:16Z</time></trkpt><trkpt lat="42.7827867866" lon="0.5393617228"><ele>1694.15</ele><time>2020-10-25T13:49:30Z</time></trkpt><trkpt lat="42.7828024607" lon="0.5392521713"><ele>1690.53</ele><time>2020-10-25T13:49:45Z</time></trkpt><trkpt lat="42.7828023769" lon="0.5391328130"><ele>1685.98</ele><time>2020-10-25T13:49:59Z</time></trkpt><trkpt lat="42.7828431968" lon="0.5390195735"><ele>1681.28</ele><time>2020-10-25T13:50:14Z</time></trkpt><trkpt lat="42.7828867827" lon="0.5389060825"><ele>1676.41</ele><time>2020-10-25T13:50:27Z</time></trkpt><trkpt lat="42.7829388343" lon="0.5388083495"><ele>1671.93</ele><time>2020-10-25T13:50:41Z</time></trkpt><trkpt lat="42.7829632256" lon="0.5386833753"><ele>1668.12</ele><time>2020-10-25T13:50:55Z</time></trkpt><trkpt lat="42.7829904668" lon="0.5385732371"><ele>1663.38</ele><time>2020-10-25T13:51:08Z</time></trkpt><trkpt lat="42.7830405906" lon="0.5384729896"><ele>1658.58</ele><time>2020-10-25T13:51:22Z</time></trkpt><trkpt lat="42.7830478828" lon="0.5383677967"><ele>1654.23</ele><time>2020-10-25T13:51:37Z</time></trkpt><trkpt lat="42.7830836736" lon="0.5382730812"><ele>1650.72</ele><time>2020-10-25T13:51:52Z</time></trkpt><trkpt lat="42.7830971684" lon="0.5381763540"><ele>1646.07</ele><time>2020-10-25T13:52:07Z</time></trkpt><trkpt lat="42.7831067238" lon="0.5380788725"><ele>1642.30</ele><time>2020-10-25T13:52:22Z</time></trkpt><trkpt lat="42.7831659839" lon="0.5380079616"><ele>1638.62</ele><time>2020-10-25T13:52:37Z</time></trkpt><trkpt lat="42.7831755392" lon="0.5379150063"><ele>1634.40</ele><time>2020-10-25T13:52:52Z</time></trkpt><trkpt lat="42.7832323685" lon="0.5378248170"><ele>1629.99</ele><time>2020-10-25T13:53:09Z</time></trkpt><trkpt lat="42.7832868509" lon="0.5377181154"><ele>1626.92</ele><time>2020-10-25T13:53:22Z</time></trkpt><trkpt lat="42.7832478750" lon="0.5376071390"><ele>1621.95</ele><time>2020-10-25T13:53:36Z</time></trkpt><trkpt lat="42.7832196280" lon="0.5374881160"><ele>1617.48</ele><time>2020-10-25T13:53:49Z</time></trkpt><trkpt lat="42.7832022775" lon="0.5373704340"><ele>1613.74</ele><time>2020-10-25T13:54:02Z</time></trkpt><trkpt lat="42.7831831668" lon="0.5372659117"><ele>1610.44</ele><time>2020-10-25T13:54:15Z</time></trkpt><trkpt lat="42.7832348831" lon="0.5371776503"><ele>1606.81</ele><time>2020-10-25T13:54:27Z</time></trkpt><trkpt lat="42.7832289319" lon="0.5370552745"><ele>1604.00</ele><time>2020-10-25T13:54:39Z</time></trkpt><trkpt lat="42.7832825761" lon="0.5369574577"><ele>1600.55</ele><time>2020-10-25T13:54:52Z</time></trkpt><trkpt lat="42.7833399922" lon="0.5368761532"><ele>1596.66</ele><time>2020-10-25T13:55:04Z</time></trkpt><trkpt lat="42.7834090590" lon="0.5367872212"><ele>1593.08</ele><time>2020-10-25T13:55:16Z</time></trkpt><trkpt lat="42.7834433410" lon="0.5366774183"><ele>1588.51</ele><time>2020-10-25T13:55:30Z</time></trkpt><trkpt lat="42.7834905311" lon="0.5365813617"><ele>1585.02</ele><time>2020-10-25T13:55:51Z</time></trkpt><trkpt lat="42.7834994998" lon="0.5364822038"><ele>1580.95</ele><time>2020-10-25T13:56:09Z</time></trkpt><trkpt lat="42.7835131623" lon="0.5363759212"><ele>1576.39</ele><time>2020-10-25T13:56:23Z</time></trkpt><trkpt lat="42.7835660521" lon="0.5363123026"><ele>1573.55</ele><time>2020-10-25T13:56:52Z</time></trkpt><trkpt lat="42.7836258989" lon="0.5362537131"><ele>1570.59</ele><time>2020-10-25T13:57:12Z</time></trkpt><trkpt lat="42.7836802974" lon="0.5361572374"><ele>1567.71</ele><time>2020-10-25T13:57:28Z</time></trkpt><trkpt lat="42.7837508731" lon="0.5360639468"><ele>1563.98</ele><time>2020-10-25T13:57:41Z</time></trkpt><trkpt lat="42.7837970573" lon="0.5359475221"><ele>1559.32</ele><time>2020-10-25T13:57:55Z</time></trkpt><trkpt lat="42.7838330157" lon="0.5358295050"><ele>1556.61</ele><time>2020-10-25T13:58:08Z</time></trkpt><trkpt lat="42.7838182636" lon="0.5357131641"><ele>1553.41</ele><time>2020-10-25T13:58:21Z</time></trkpt><trkpt lat="42.7838124800" lon="0.5355916265"><ele>1550.02</ele><time>2020-10-25T13:58:33Z</time></trkpt><trkpt lat="42.7838512044" lon="0.5354766268"><ele>1547.17</ele><time>2020-10-25T13:58:42Z</time></trkpt><trkpt lat="42.7839137334" lon="0.5353824142"><ele>1545.47</ele><time>2020-10-25T13:58:51Z</time></trkpt><trkpt lat="42.7839808725" lon="0.5353062227"><ele>1543.93</ele><time>2020-10-25T13:59:01Z</time></trkpt><trkpt lat="42.7840347681" lon="0.5352159496"><ele>1541.25</ele><time>2020-10-25T13:59:19Z</time></trkpt><trkpt lat="42.7840817906" lon="0.5351114273"><ele>1536.96</ele><time>2020-10-25T13:59:32Z</time></trkpt><trkpt lat="42.7841463313" lon="0.5350255128"><ele>1535.31</ele><time>2020-10-25T13:59:52Z</time></trkpt><trkpt lat="42.7841390390" lon="0.5349143688"><ele>1531.82</ele><time>2020-10-25T14:00:11Z</time></trkpt><trkpt lat="42.7841152344" lon="0.5348227546"><ele>1528.21</ele><time>2020-10-25T14:00:28Z</time></trkpt><trkpt lat="42.7840660326" lon="0.5347349122"><ele>1522.91</ele><time>2020-10-25T14:01:03Z</time></trkpt><trkpt lat="42.7840118855" lon="0.5346656777"><ele>1519.19</ele><time>2020-10-25T14:01:21Z</time></trkpt><trkpt lat="42.7840314992" lon="0.5345833674"><ele>1516.41</ele><time>2020-10-25T14:01:38Z</time></trkpt><trkpt lat="42.7841075230" lon="0.5345195811"><ele>1515.66</ele><time>2020-10-25T14:01:49Z</time></trkpt><trkpt lat="42.7841625083" lon="0.5344230216"><ele>1513.07</ele><time>2020-10-25T14:02:01Z</time></trkpt><trkpt lat="42.7840837184" lon="0.5344578903"><ele>1512.21</ele><time>2020-10-25T14:02:18Z</time></trkpt><trkpt lat="42.7839745022" lon="0.5344819464"><ele>1510.43</ele><time>2020-10-25T14:02:29Z</time></trkpt><trkpt lat="42.7838766854" lon="0.5345547013"><ele>1509.54</ele><time>2020-10-25T14:02:39Z</time></trkpt><trkpt lat="42.7837602608" lon="0.5345077626"><ele>1508.64</ele><time>2020-10-25T14:02:49Z</time></trkpt><trkpt lat="42.7836465184" lon="0.5344469938"><ele>1507.73</ele><time>2020-10-25T14:03:03Z</time></trkpt><trkpt lat="42.7835140005" lon="0.5343398731"><ele>1505.89</ele><time>2020-10-25T14:03:17Z</time></trkpt><trkpt lat="42.7834549919" lon="0.5341962911"><ele>1505.74</ele><time>2020-10-25T14:03:28Z</time></trkpt><trkpt lat="42.7833777107" lon="0.5340724904"><ele>1503.06</ele><time>2020-10-25T14:03:42Z</time></trkpt><trkpt lat="42.7833116613" lon="0.5339397211"><ele>1501.71</ele><time>2020-10-25T14:03:52Z</time></trkpt><trkpt lat="42.7832294349" lon="0.5338061135"><ele>1499.94</ele><time>2020-10-25T14:04:04Z</time></trkpt><trkpt lat="42.7831508126" lon="0.5336759426"><ele>1499.08</ele><time>2020-10-25T14:04:16Z</time></trkpt><trkpt lat="42.7830874454" lon="0.5335209612"><ele>1496.29</ele><time>2020-10-25T14:04:29Z</time></trkpt><trkpt lat="42.7829866949" lon="0.5334315263"><ele>1494.42</ele><time>2020-10-25T14:04:42Z</time></trkpt><trkpt lat="42.7828901354" lon="0.5333568435"><ele>1492.67</ele><time>2020-10-25T14:04:54Z</time></trkpt><trkpt lat="42.7827960066" lon="0.5332964938"><ele>1490.90</ele><time>2020-10-25T14:05:05Z</time></trkpt><trkpt lat="42.7827040572" lon="0.5332690850"><ele>1489.21</ele><time>2020-10-25T14:05:15Z</time></trkpt><trkpt lat="42.7825936675" lon="0.5332819093"><ele>1487.33</ele><time>2020-10-25T14:05:26Z</time></trkpt><trkpt lat="42.7824770752" lon="0.5332819093"><ele>1485.29</ele><time>2020-10-25T14:05:36Z</time></trkpt><trkpt lat="42.7823674399" lon="0.5332622956"><ele>1483.50</ele><time>2020-10-25T14:05:45Z</time></trkpt><trkpt lat="42.7822646778" lon="0.5332224816"><ele>1481.81</ele><time>2020-10-25T14:05:54Z</time></trkpt><trkpt lat="42.7821552102" lon="0.5331778061"><ele>1479.99</ele><time>2020-10-25T14:06:03Z</time></trkpt><trkpt lat="42.7820393723" lon="0.5331387464"><ele>1478.25</ele><time>2020-10-25T14:06:13Z</time></trkpt><trkpt lat="42.7819364425" lon="0.5331014469"><ele>1476.40</ele><time>2020-10-25T14:06:22Z</time></trkpt><trkpt lat="42.7818170842" lon="0.5330579448"><ele>1474.82</ele><time>2020-10-25T14:06:32Z</time></trkpt><trkpt lat="42.7817017492" lon="0.5330445338"><ele>1472.18</ele><time>2020-10-25T14:06:43Z</time></trkpt><trkpt lat="42.7815815527" lon="0.5330324639"><ele>1471.20</ele><time>2020-10-25T14:06:53Z</time></trkpt><trkpt lat="42.7814607695" lon="0.5330052227"><ele>1469.45</ele><time>2020-10-25T14:07:03Z</time></trkpt><trkpt lat="42.7813652158" lon="0.5329986010"><ele>1468.46</ele><time>2020-10-25T14:07:13Z</time></trkpt><trkpt lat="42.7812689915" lon="0.5329790711"><ele>1466.66</ele><time>2020-10-25T14:07:23Z</time></trkpt><trkpt lat="42.7811524831" lon="0.5329564400"><ele>1465.00</ele><time>2020-10-25T14:07:33Z</time></trkpt><trkpt lat="42.7810404170" lon="0.5329462141"><ele>1462.37</ele><time>2020-10-25T14:07:43Z</time></trkpt><trkpt lat="42.7809187118" lon="0.5329256784"><ele>1460.70</ele><time>2020-10-25T14:07:54Z</time></trkpt><trkpt lat="42.7807980124" lon="0.5329039693"><ele>1458.97</ele><time>2020-10-25T14:08:06Z</time></trkpt><trkpt lat="42.7806878742" lon="0.5328711960"><ele>1456.40</ele><time>2020-10-25T14:08:16Z</time></trkpt><trkpt lat="42.7805725392" lon="0.5328365788"><ele>1455.53</ele><time>2020-10-25T14:08:25Z</time></trkpt><trkpt lat="42.7804556955" lon="0.5328364950"><ele>1453.84</ele><time>2020-10-25T14:08:34Z</time></trkpt><trkpt lat="42.7803598065" lon="0.5329116806"><ele>1452.86</ele><time>2020-10-25T14:08:45Z</time></trkpt><trkpt lat="42.7802506741" lon="0.5329016224"><ele>1451.15</ele><time>2020-10-25T14:08:58Z</time></trkpt><trkpt lat="42.7801618259" lon="0.5328083318"><ele>1450.35</ele><time>2020-10-25T14:09:11Z</time></trkpt><trkpt lat="42.7800764143" lon="0.5327386782"><ele>1449.37</ele><time>2020-10-25T14:09:21Z</time></trkpt><trkpt lat="42.7799822856" lon="0.5326769873"><ele>1447.60</ele><time>2020-10-25T14:09:30Z</time></trkpt><trkpt lat="42.7798631787" lon="0.5326717068"><ele>1447.56</ele><time>2020-10-25T14:09:39Z</time></trkpt><trkpt lat="42.7797380369" lon="0.5326831900"><ele>1446.71</ele><time>2020-10-25T14:09:49Z</time></trkpt><trkpt lat="42.7796184272" lon="0.5326556135"><ele>1445.80</ele><time>2020-10-25T14:09:59Z</time></trkpt><trkpt lat="42.7795105521" lon="0.5326120276"><ele>1443.87</ele><time>2020-10-25T14:10:08Z</time></trkpt><trkpt lat="42.7794031799" lon="0.5325807631"><ele>1442.22</ele><time>2020-10-25T14:10:17Z</time></trkpt><trkpt lat="42.7793061174" lon="0.5325213354"><ele>1440.65</ele><time>2020-10-25T14:10:27Z</time></trkpt><trkpt lat="42.7792026009" lon="0.5324511789"><ele>1438.93</ele><time>2020-10-25T14:10:36Z</time></trkpt><trkpt lat="42.7791110706" lon="0.5323650129"><ele>1437.22</ele><time>2020-10-25T14:10:45Z</time></trkpt><trkpt lat="42.7790261619" lon="0.5322996341"><ele>1435.55</ele><time>2020-10-25T14:10:54Z</time></trkpt><trkpt lat="42.7789428458" lon="0.5322378594"><ele>1434.75</ele><time>2020-10-25T14:11:03Z</time></trkpt><trkpt lat="42.7788595296" lon="0.5321319960"><ele>1433.11</ele><time>2020-10-25T14:11:13Z</time></trkpt><trkpt lat="42.7788236551" lon="0.5320026632"><ele>1431.50</ele><time>2020-10-25T14:11:22Z</time></trkpt><trkpt lat="42.7787653171" lon="0.5318872444"><ele>1430.55</ele><time>2020-10-25T14:11:31Z</time></trkpt><trkpt lat="42.7786919754" lon="0.5317899305"><ele>1428.69</ele><time>2020-10-25T14:11:41Z</time></trkpt><trkpt lat="42.7786309551" lon="0.5316700693"><ele>1428.59</ele><time>2020-10-25T14:12:01Z</time></trkpt><trkpt lat="42.7785812505" lon="0.5315488670"><ele>1427.73</ele><time>2020-10-25T14:12:11Z</time></trkpt><trkpt lat="42.7784937434" lon="0.5314470269"><ele>1427.67</ele><time>2020-10-25T14:12:23Z</time></trkpt><trkpt lat="42.7784806676" lon="0.5312895309"><ele>1426.81</ele><time>2020-10-25T14:12:36Z</time></trkpt><trkpt lat="42.7786002774" lon="0.5312570930"><ele>1426.75</ele><time>2020-10-25T14:12:49Z</time></trkpt><trkpt lat="42.7786886226" lon="0.5312911235"><ele>1426.57</ele><time>2020-10-25T14:13:11Z</time></trkpt><trkpt lat="42.7786721941" lon="0.5312884413"><ele>1376.59</ele><time>2020-10-25T14:15:16Z</time></trkpt></trkseg></trk></gpx>
